Observation data for Van Horn on 07/13/2020      Previous  Date  Next       Current Mesonet Observations  Soil Data  Daily Summary Page  Observations in Plain Language
KVA1 130500Z 23007KT 29/01 A3002 RMK A01 T02870007  RH  016%=      5-min Rain = 0
KVA1 130501Z 23006KT 29/01 A3002 RMK A01 T02880007  RH  016%=      5-min Rain = 0
KVA1 130502Z 23006KT 29/01 A3002 RMK A01 T02880007  RH  016%=      5-min Rain = 0
KVA1 130503Z 23007KT 29/01 A3002 RMK A01 T02880007  RH  016%=      5-min Rain = 0
KVA1 130504Z 23007KT 29/01 A3002 RMK A01 T02880007  RH  016%=      5-min Rain = 0
KVA1 130505Z 23007KT 29/01 A3002 RMK A01 T02880006  RH  016%=      5-min Rain = 0
KVA1 130506Z 22006KT 29/01 A3002 RMK A01 T02890005  RH  016%=      5-min Rain = 0
KVA1 130507Z 22007KT 29/01 A3002 RMK A01 T02900005  RH  016%=      5-min Rain = 0
KVA1 130508Z 23007KT 29/00 A3002 RMK A01 T02910004  RH  016%=      5-min Rain = 0
KVA1 130509Z 23007KT 29/00 A3002 RMK A01 T02910004  RH  016%=      5-min Rain = 0
KVA1 130510Z 23006KT 29/00 A3002 RMK A01 T02910004  RH  016%=      5-min Rain = 0
KVA1 130511Z 22006KT 29/00 A3002 RMK A01 T02910004  RH  016%=      5-min Rain = 0
KVA1 130512Z 22006KT 29/01 A3002 RMK A01 T02910005  RH  016%=      5-min Rain = 0
KVA1 130513Z 23007KT 29/01 A3002 RMK A01 T02900005  RH  016%=      5-min Rain = 0
KVA1 130514Z 23005KT 29/00 A3002 RMK A01 T02900004  RH  016%=      5-min Rain = 0
KVA1 130515Z 22004KT 29/01 A3002 RMK A01 T02890005  RH  016%=      5-min Rain = 0
KVA1 130516Z 23005KT 29/01 A3002 RMK A01 T02880007  RH  016%=      5-min Rain = 0
KVA1 130517Z 23007KT 29/01 A3002 RMK A01 T02870005  RH  016%=      5-min Rain = 0
KVA1 130518Z 24007KT 29/01 A3002 RMK A01 T02870005  RH  016%=      5-min Rain = 0
KVA1 130519Z 25007KT 29/01 A3002 RMK A01 T02860005  RH  016%=      5-min Rain = 0
KVA1 130520Z 24006KT 29/00 A3002 RMK A01 T02860004  RH  016%=      5-min Rain = 0
KVA1 130521Z 23004KT 29/01 A3003 RMK A01 T02850005  RH  016%=      5-min Rain = 0
KVA1 130522Z 24005KT 28/01 A3003 RMK A01 T02840005  RH  016%=      5-min Rain = 0
KVA1 130523Z 24006KT 28/00 A3003 RMK A01 T02840004  RH  016%=      5-min Rain = 0
KVA1 130524Z 22006KT 29/00 A3003 RMK A01 T02850004  RH  016%=      5-min Rain = 0
KVA1 130525Z 23006KT 29/00 A3003 RMK A01 T02860004  RH  016%=      5-min Rain = 0
KVA1 130526Z 23007KT 29/00 A3003 RMK A01 T02870003  RH  016%=      5-min Rain = 0
KVA1 130527Z 24008KT 29/00 A3003 RMK A01 T02880002  RH  016%=      5-min Rain = 0
KVA1 130528Z 23008KT 29/00 A3003 RMK A01 T02880001  RH  016%=      5-min Rain = 0
KVA1 130529Z 23008KT 29/00 A3003 RMK A01 T02900001  RH  015%=      5-min Rain = 0
KVA1 130530Z 23007KT 29/00 A3003 RMK A01 T029000-0  RH  015%=      5-min Rain = 0
KVA1 130531Z 23007KT 29/M00 A3003 RMK A01 T02911001  RH  015%=      5-min Rain = 0
KVA1 130532Z 23007KT 29/M00 A3003 RMK A01 T02911001  RH  015%=      5-min Rain = 0
KVA1 130533Z 23007KT 29/M00 A3003 RMK A01 T02911001  RH  015%=      5-min Rain = 0
KVA1 130534Z 23007KT 29/M00 A3003 RMK A01 T02911002  RH  015%=      5-min Rain = 0
KVA1 130535Z 23007KT 29/M00 A3003 RMK A01 T02911002  RH  015%=      5-min Rain = 0
KVA1 130536Z 23008KT 29/M00 A3003 RMK A01 T02911003  RH  015%=      5-min Rain = 0
KVA1 130537Z 22008KT 29/M00 A3003 RMK A01 T02921003  RH  015%=      5-min Rain = 0
KVA1 130538Z 22008KT 29/M00 A3003 RMK A01 T02921004  RH  015%=      5-min Rain = 0
KVA1 130539Z 22007KT 29/M00 A3003 RMK A01 T02921004  RH  015%=      5-min Rain = 0
KVA1 130540Z 22008KT 29/M01 A3003 RMK A01 T02931005  RH  014%=      5-min Rain = 0
KVA1 130541Z 22007KT 29/M01 A3003 RMK A01 T02931005  RH  014%=      5-min Rain = 0
KVA1 130542Z 23007KT 29/M00 A3003 RMK A01 T02931004  RH  014%=      5-min Rain = 0
KVA1 130543Z 23007KT 29/M01 A3003 RMK A01 T02931005  RH  014%=      5-min Rain = 0
KVA1 130544Z 22007KT 29/M01 A3003 RMK A01 T02931005  RH  014%=      5-min Rain = 0
KVA1 130545Z 22007KT 29/M01 A3003 RMK A01 T02921005  RH  014%=      5-min Rain = 0
KVA1 130546Z 23006KT 29/M01 A3003 RMK A01 T02921005  RH  015%=      5-min Rain = 0
KVA1 130547Z 23006KT 29/M01 A3003 RMK A01 T02911005  RH  015%=      5-min Rain = 0
KVA1 130548Z 23007KT 29/M00 A3003 RMK A01 T02891004  RH  015%=      5-min Rain = 0
KVA1 130549Z 23007KT 29/M00 A3003 RMK A01 T02881004  RH  015%=      5-min Rain = 0
KVA1 130550Z 23007KT 29/M00 A3003 RMK A01 T02881004  RH  015%=      5-min Rain = 0
KVA1 130551Z 23007KT 29/M00 A3003 RMK A01 T02871003  RH  015%=      5-min Rain = 0
KVA1 130552Z 23008KT 29/M00 A3003 RMK A01 T02871004  RH  015%=      5-min Rain = 0
KVA1 130553Z 23008KT 29/M00 A3003 RMK A01 T02861004  RH  015%=      5-min Rain = 0
KVA1 130554Z 23008KT 29/M00 A3003 RMK A01 T02871004  RH  015%=      5-min Rain = 0
KVA1 130555Z 23007KT 29/M01 A3003 RMK A01 T02871005  RH  015%=      5-min Rain = 0
KVA1 130556Z 22008KT 29/M01 A3003 RMK A01 T02871005  RH  015%=      5-min Rain = 0
KVA1 130557Z 22007KT 29/M01 A3003 RMK A01 T02871005  RH  015%=      5-min Rain = 0
KVA1 130558Z 22007KT 29/M01 A3003 RMK A01 T02871005  RH  015%=      5-min Rain = 0
KVA1 130559Z 22007KT 29/M01 A3003 RMK A01 T02871005  RH  015%=      5-min Rain = 0
KVA1 130600Z 22008KT 29/M01 A3003 RMK A01 T02871005  RH  015%=      5-min Rain = 0
KVA1 130601Z 22008KT 29/M01 A3003 RMK A01 T02871005  RH  015%=      5-min Rain = 0
KVA1 130602Z 22008KT 29/M01 A3003 RMK A01 T02871005  RH  015%=      5-min Rain = 0
KVA1 130603Z 22007KT 29/M01 A3003 RMK A01 T02861005  RH  015%=      5-min Rain = 0
KVA1 130604Z 21007KT 29/M01 A3003 RMK A01 T02861005  RH  015%=      5-min Rain = 0
KVA1 130605Z 21007KT 29/M01 A3003 RMK A01 T02851005  RH  015%=      5-min Rain = 0
KVA1 130606Z 21008KT 29/M01 A3003 RMK A01 T02851005  RH  015%=      5-min Rain = 0
KVA1 130607Z 22007KT 28/M01 A3003 RMK A01 T02841005  RH  015%=      5-min Rain = 0
KVA1 130608Z 22007KT 28/M01 A3003 RMK A01 T02841005  RH  015%=      5-min Rain = 0
KVA1 130609Z 22008KT 28/M01 A3003 RMK A01 T02831006  RH  015%=      5-min Rain = 0
KVA1 130610Z 22007KT 28/M01 A3003 RMK A01 T02831006  RH  015%=      5-min Rain = 0
KVA1 130611Z 21007KT 28/M01 A3003 RMK A01 T02831006  RH  015%=      5-min Rain = 0
KVA1 130612Z 23008KT 28/M01 A3003 RMK A01 T02821006  RH  015%=      5-min Rain = 0
KVA1 130613Z 22007KT 28/M01 A3003 RMK A01 T02821006  RH  015%=      5-min Rain = 0
KVA1 130614Z 22007KT 28/M01 A3003 RMK A01 T02821007  RH  015%=      5-min Rain = 0
KVA1 130615Z 23007KT 28/M01 A3003 RMK A01 T02811006  RH  015%=      5-min Rain = 0
KVA1 130616Z 22007KT 28/M01 A3003 RMK A01 T02811006  RH  015%=      5-min Rain = 0
KVA1 130617Z 22007KT 28/M01 A3003 RMK A01 T02801006  RH  015%=      5-min Rain = 0
KVA1 130618Z 22007KT 28/M01 A3003 RMK A01 T02801007  RH  015%=      5-min Rain = 0
KVA1 130619Z 22007KT 28/M01 A3003 RMK A01 T02791006  RH  016%=      5-min Rain = 0
KVA1 130620Z 22007KT 28/M01 A3003 RMK A01 T02791006  RH  016%=      5-min Rain = 0
KVA1 130621Z 22006KT 28/M01 A3003 RMK A01 T02791005  RH  016%=      5-min Rain = 0
KVA1 130622Z 22007KT 28/M01 A3002 RMK A01 T02791005  RH  016%=      5-min Rain = 0
KVA1 130623Z 22007KT 28/M01 A3002 RMK A01 T02781005  RH  016%=      5-min Rain = 0
KVA1 130624Z 22006KT 28/M01 A3002 RMK A01 T02781005  RH  016%=      5-min Rain = 0
KVA1 130625Z 22006KT 28/M00 A3002 RMK A01 T02781004  RH  016%=      5-min Rain = 0
KVA1 130626Z 23007KT 28/M00 A3002 RMK A01 T02781004  RH  016%=      5-min Rain = 0
KVA1 130627Z 22007KT 28/M00 A3002 RMK A01 T02771004  RH  016%=      5-min Rain = 0
KVA1 130628Z 23007KT 28/M00 A3002 RMK A01 T02771004  RH  016%=      5-min Rain = 0
KVA1 130629Z 23007KT 28/M00 A3002 RMK A01 T02771003  RH  016%=      5-min Rain = 0
KVA1 130630Z 23006KT 28/M00 A3002 RMK A01 T02761003  RH  016%=      5-min Rain = 0
KVA1 130631Z 23007KT 28/M00 A3002 RMK A01 T02761003  RH  016%=      5-min Rain = 0
KVA1 130632Z 23006KT 28/M00 A3002 RMK A01 T02761003  RH  016%=      5-min Rain = 0
KVA1 130633Z 23006KT 28/M00 A3002 RMK A01 T02761002  RH  016%=      5-min Rain = 0
KVA1 130634Z 23006KT 28/M00 A3002 RMK A01 T02761002  RH  016%=      5-min Rain = 0
KVA1 130635Z 23007KT 28/M00 A3002 RMK A01 T02751002  RH  016%=      5-min Rain = 0
KVA1 130636Z 23006KT 28/M00 A3002 RMK A01 T02751002  RH  016%=      5-min Rain = 0
KVA1 130637Z 23006KT 28/M00 A3002 RMK A01 T02751002  RH  016%=      5-min Rain = 0
KVA1 130638Z 22006KT 28/M00 A3002 RMK A01 T02751001  RH  017%=      5-min Rain = 0
KVA1 130639Z 22007KT 28/M00 A3002 RMK A01 T02751001  RH  017%=      5-min Rain = 0
KVA1 130640Z 23007KT 27/M00 A3002 RMK A01 T02741001  RH  017%=      5-min Rain = 0
KVA1 130641Z 23007KT 27/M00 A3002 RMK A01 T02741001  RH  017%=      5-min Rain = 0
KVA1 130642Z 22007KT 27/M00 A3002 RMK A01 T02741001  RH  017%=      5-min Rain = 0
KVA1 130643Z 23007KT 27/M00 A3002 RMK A01 T02741001  RH  017%=      5-min Rain = 0
KVA1 130644Z 23007KT 27/00 A3002 RMK A01 T027400-0  RH  017%=      5-min Rain = 0
KVA1 130645Z 23007KT 27/00 A3002 RMK A01 T027400-0  RH  017%=      5-min Rain = 0
KVA1 130646Z 23007KT 27/00 A3002 RMK A01 T02740000  RH  017%=      5-min Rain = 0
KVA1 130647Z 23008KT 27/00 A3002 RMK A01 T027300-0  RH  017%=      5-min Rain = 0
KVA1 130648Z 23006KT 27/00 A3002 RMK A01 T027300-0  RH  017%=      5-min Rain = 0
KVA1 130649Z 23007KT 27/00 A3002 RMK A01 T02730000  RH  017%=      5-min Rain = 0
KVA1 130650Z 22007KT 27/00 A3002 RMK A01 T02730000  RH  017%=      5-min Rain = 0
KVA1 130651Z 22008KT 27/00 A3002 RMK A01 T02730000  RH  017%=      5-min Rain = 0
KVA1 130652Z 23008KT 27/00 A3002 RMK A01 T02730000  RH  017%=      5-min Rain = 0
KVA1 130653Z 23008KT 27/00 A3002 RMK A01 T02730001  RH  017%=      5-min Rain = 0
KVA1 130654Z 22008KT 27/00 A3002 RMK A01 T02730001  RH  017%=      5-min Rain = 0
KVA1 130655Z 22008KT 27/00 A3002 RMK A01 T02730001  RH  017%=      5-min Rain = 0
KVA1 130656Z 22009KT 27/00 A3002 RMK A01 T02730001  RH  017%=      5-min Rain = 0
KVA1 130657Z 22008KT 27/00 A3002 RMK A01 T02730001  RH  017%=      5-min Rain = 0
KVA1 130658Z 21010KT 27/00 A3002 RMK A01 T02740001  RH  017%=      5-min Rain = 0
KVA1 130659Z 21008KT 27/00 A3002 RMK A01 T02740002  RH  017%=      5-min Rain = 0
KVA1 130700Z 21009KT 27/00 A3002 RMK A01 T02740001  RH  017%=      5-min Rain = 0
KVA1 130701Z 21008KT 27/00 A3002 RMK A01 T02740002  RH  017%=      5-min Rain = 0
KVA1 130702Z 21009KT 27/00 A3002 RMK A01 T02740002  RH  017%=      5-min Rain = 0
KVA1 130703Z 21009KT 27/00 A3002 RMK A01 T02740002  RH  017%=      5-min Rain = 0
KVA1 130704Z 21010KT 27/00 A3002 RMK A01 T02740002  RH  017%=      5-min Rain = 0
KVA1 130705Z 21010KT 27/00 A3002 RMK A01 T02740003  RH  017%=      5-min Rain = 0
KVA1 130706Z 21009KT 27/00 A3002 RMK A01 T02740002  RH  017%=      5-min Rain = 0
KVA1 130707Z 21009KT 28/00 A3002 RMK A01 T02750003  RH  017%=      5-min Rain = 0
KVA1 130708Z 21009KT 28/00 A3002 RMK A01 T02750003  RH  017%=      5-min Rain = 0
KVA1 130709Z 21009KT 28/00 A3002 RMK A01 T02750003  RH  017%=      5-min Rain = 0
KVA1 130710Z 21009KT 28/00 A3002 RMK A01 T02750004  RH  017%=      5-min Rain = 0
KVA1 130711Z 20009KT 27/00 A3002 RMK A01 T02740004  RH  017%=      5-min Rain = 0
KVA1 130712Z 20009KT 27/00 A3002 RMK A01 T02740004  RH  017%=      5-min Rain = 0
KVA1 130713Z 20010KT 27/00 A3002 RMK A01 T02740004  RH  017%=      5-min Rain = 0
KVA1 130714Z 20009KT 28/01 A3002 RMK A01 T02750005  RH  017%=      5-min Rain = 0
KVA1 130715Z 20009KT 28/01 A3002 RMK A01 T02750005  RH  017%=      5-min Rain = 0
KVA1 130716Z 20010KT 28/01 A3002 RMK A01 T02750005  RH  017%=      5-min Rain = 0
KVA1 130717Z 20010KT 28/01 A3002 RMK A01 T02760006  RH  017%=      5-min Rain = 0
KVA1 130718Z 20010KT 28/01 A3002 RMK A01 T02760006  RH  017%=      5-min Rain = 0
KVA1 130719Z 20011KT 28/01 A3002 RMK A01 T02760006  RH  017%=      5-min Rain = 0
KVA1 130720Z 20010KT 28/01 A3002 RMK A01 T02770007  RH  017%=      5-min Rain = 0
KVA1 130721Z 21010KT 28/01 A3002 RMK A01 T02770007  RH  017%=      5-min Rain = 0
KVA1 130722Z 20009KT 28/01 A3002 RMK A01 T02770007  RH  017%=      5-min Rain = 0
KVA1 130723Z 21009KT 28/01 A3002 RMK A01 T02770007  RH  017%=      5-min Rain = 0
KVA1 130724Z 21009KT 28/01 A3002 RMK A01 T02760007  RH  017%=      5-min Rain = 0
KVA1 130725Z 21010KT 28/01 A3002 RMK A01 T02760008  RH  017%=      5-min Rain = 0
KVA1 130726Z 21008KT 28/01 A3002 RMK A01 T02760008  RH  018%=      5-min Rain = 0
KVA1 130727Z 21010KT 28/01 A3002 RMK A01 T02750008  RH  018%=      5-min Rain = 0
KVA1 130728Z 21010KT 27/01 A3002 RMK A01 T02740009  RH  018%=      5-min Rain = 0
KVA1 130729Z 21009KT 27/01 A3002 RMK A01 T02740009  RH  018%=      5-min Rain = 0
KVA1 130730Z 21010KT 27/01 A3002 RMK A01 T02730010  RH  018%=      5-min Rain = 0
KVA1 130731Z 21007KT 27/01 A3003 RMK A01 T02720010  RH  018%=      5-min Rain = 0
KVA1 130732Z 21009KT 27/01 A3003 RMK A01 T02720010  RH  018%=      5-min Rain = 0
KVA1 130733Z 21009KT 27/01 A3003 RMK A01 T02710010  RH  018%=      5-min Rain = 0
KVA1 130734Z 21009KT 27/01 A3003 RMK A01 T02710010  RH  018%=      5-min Rain = 0
KVA1 130735Z 21008KT 27/01 A3003 RMK A01 T02700011  RH  018%=      5-min Rain = 0
KVA1 130736Z 21009KT 27/01 A3003 RMK A01 T02700011  RH  019%=      5-min Rain = 0
KVA1 130737Z 21009KT 27/01 A3003 RMK A01 T02700011  RH  019%=      5-min Rain = 0
KVA1 130738Z 21008KT 27/01 A3003 RMK A01 T02700011  RH  019%=      5-min Rain = 0
KVA1 130739Z 22008KT 27/01 A3003 RMK A01 T02700012  RH  019%=      5-min Rain = 0
KVA1 130740Z 22009KT 27/01 A3003 RMK A01 T02690012  RH  019%=      5-min Rain = 0
KVA1 130741Z 22008KT 27/01 A3003 RMK A01 T02690012  RH  019%=      5-min Rain = 0
KVA1 130742Z 22007KT 27/01 A3003 RMK A01 T02690012  RH  019%=      5-min Rain = 0
KVA1 130743Z 22008KT 27/01 A3003 RMK A01 T02690013  RH  019%=      5-min Rain = 0
KVA1 130744Z 23007KT 27/01 A3003 RMK A01 T02690013  RH  019%=      5-min Rain = 0
KVA1 130745Z 23006KT 27/01 A3003 RMK A01 T02680013  RH  019%=      5-min Rain = 0
KVA1 130746Z 23006KT 27/01 A3003 RMK A01 T02670012  RH  019%=      5-min Rain = 0
KVA1 130747Z 23005KT 27/01 A3003 RMK A01 T02650012  RH  019%=      5-min Rain = 0
KVA1 130748Z 23006KT 26/01 A3003 RMK A01 T02640012  RH  019%=      5-min Rain = 0
KVA1 130749Z 22007KT 26/01 A3002 RMK A01 T02630012  RH  019%=      5-min Rain = 0
KVA1 130750Z 23007KT 26/01 A3002 RMK A01 T02630013  RH  020%=      5-min Rain = 0
KVA1 130751Z 23008KT 26/01 A3002 RMK A01 T02630014  RH  020%=      5-min Rain = 0
KVA1 130752Z 22007KT 26/02 A3002 RMK A01 T02630015  RH  020%=      5-min Rain = 0
KVA1 130753Z 22007KT 26/02 A3002 RMK A01 T02640015  RH  020%=      5-min Rain = 0
KVA1 130754Z 23006KT 26/02 A3002 RMK A01 T02640016  RH  020%=      5-min Rain = 0
KVA1 130755Z 22006KT 26/02 A3002 RMK A01 T02640016  RH  020%=      5-min Rain = 0
KVA1 130756Z 22008KT 26/02 A3002 RMK A01 T02640017  RH  020%=      5-min Rain = 0
KVA1 130757Z 22007KT 26/02 A3002 RMK A01 T02640018  RH  020%=      5-min Rain = 0
KVA1 130758Z 22007KT 26/02 A3002 RMK A01 T02640018  RH  020%=      5-min Rain = 0
KVA1 130759Z 22006KT 26/02 A3002 RMK A01 T02630018  RH  020%=      5-min Rain = 0
KVA1 130800Z 22006KT 26/02 A3002 RMK A01 T02630018  RH  020%=      5-min Rain = 0
KVA1 130801Z 22006KT 26/02 A3002 RMK A01 T02620019  RH  021%=      5-min Rain = 0
KVA1 130802Z 22007KT 26/02 A3002 RMK A01 T02620020  RH  021%=      5-min Rain = 0
KVA1 130803Z 22007KT 26/02 A3002 RMK A01 T02620021  RH  021%=      5-min Rain = 0
KVA1 130804Z 22006KT 26/02 A3002 RMK A01 T02630022  RH  021%=      5-min Rain = 0
KVA1 130805Z 21007KT 26/02 A3002 RMK A01 T02630023  RH  021%=      5-min Rain = 0
KVA1 130806Z 21007KT 26/02 A3002 RMK A01 T02640024  RH  021%=      5-min Rain = 0
KVA1 130807Z 21007KT 27/03 A3002 RMK A01 T02650025  RH  021%=      5-min Rain = 0
KVA1 130808Z 21007KT 27/03 A3002 RMK A01 T02650026  RH  021%=      5-min Rain = 0
KVA1 130809Z 20008KT 27/03 A3002 RMK A01 T02650026  RH  021%=      5-min Rain = 0
KVA1 130810Z 20005KT 27/03 A3002 RMK A01 T02660027  RH  021%=      5-min Rain = 0
KVA1 130811Z 20007KT 27/03 A3002 RMK A01 T02660027  RH  021%=      5-min Rain = 0
KVA1 130812Z 20005KT 27/03 A3002 RMK A01 T02660029  RH  022%=      5-min Rain = 0
KVA1 130813Z 19005KT 27/03 A3002 RMK A01 T02660029  RH  022%=      5-min Rain = 0
KVA1 130814Z 20005KT 27/03 A3002 RMK A01 T02660031  RH  022%=      5-min Rain = 0
KVA1 130815Z 20007KT 27/03 A3002 RMK A01 T02670032  RH  022%=      5-min Rain = 0
KVA1 130816Z 20006KT 27/03 A3003 RMK A01 T02670033  RH  022%=      5-min Rain = 0
KVA1 130817Z 19006KT 27/04 A3003 RMK A01 T02680035  RH  022%=      5-min Rain = 0
KVA1 130818Z 19006KT 27/04 A3003 RMK A01 T02680035  RH  022%=      5-min Rain = 0
KVA1 130819Z 20006KT 27/04 A3003 RMK A01 T02680036  RH  022%=      5-min Rain = 0
KVA1 130820Z 19007KT 27/04 A3003 RMK A01 T02680037  RH  023%=      5-min Rain = 0
KVA1 130821Z 20005KT 27/04 A3003 RMK A01 T02680037  RH  023%=      5-min Rain = 0
KVA1 130822Z 19006KT 27/04 A3003 RMK A01 T02680038  RH  023%=      5-min Rain = 0
KVA1 130823Z 19006KT 27/04 A3003 RMK A01 T02680039  RH  023%=      5-min Rain = 0
KVA1 130824Z 20003KT 27/04 A3003 RMK A01 T02680039  RH  023%=      5-min Rain = 0
KVA1 130825Z 19005KT 27/04 A3003 RMK A01 T02680039  RH  023%=      5-min Rain = 0
KVA1 130826Z 21005KT 27/04 A3003 RMK A01 T02680040  RH  023%=      5-min Rain = 0
KVA1 130827Z 20004KT 27/04 A3003 RMK A01 T02680040  RH  023%=      5-min Rain = 0
KVA1 130828Z 20005KT 27/04 A3003 RMK A01 T02670040  RH  023%=      5-min Rain = 0
KVA1 130829Z 20005KT 27/04 A3003 RMK A01 T02670040  RH  023%=      5-min Rain = 0
KVA1 130830Z 20004KT 27/04 A3003 RMK A01 T02670041  RH  023%=      5-min Rain = 0
KVA1 130831Z 20005KT 27/04 A3003 RMK A01 T02670040  RH  023%=      5-min Rain = 0
KVA1 130832Z 20004KT 27/04 A3003 RMK A01 T02670040  RH  023%=      5-min Rain = 0
KVA1 130833Z 23002KT 27/04 A3003 RMK A01 T02660040  RH  023%=      5-min Rain = 0
KVA1 130834Z 20003KT 27/04 A3003 RMK A01 T02660041  RH  024%=      5-min Rain = 0
KVA1 130835Z 23003KT 27/04 A3003 RMK A01 T02660042  RH  024%=      5-min Rain = 0
KVA1 130836Z 26002KT 27/04 A3003 RMK A01 T02650041  RH  024%=      5-min Rain = 0
KVA1 130837Z 27002KT 27/04 A3003 RMK A01 T02650040  RH  024%=      5-min Rain = 0
KVA1 130838Z 26003KT 26/04 A3003 RMK A01 T02630040  RH  024%=      5-min Rain = 0
KVA1 130839Z 26004KT 26/04 A3003 RMK A01 T02620040  RH  024%=      5-min Rain = 0
KVA1 130840Z 26003KT 26/04 A3004 RMK A01 T02610040  RH  024%=      5-min Rain = 0
KVA1 130841Z 25005KT 26/04 A3004 RMK A01 T02610042  RH  024%=      5-min Rain = 0
KVA1 130842Z 26004KT 26/04 A3004 RMK A01 T02610043  RH  025%=      5-min Rain = 0
KVA1 130843Z 28003KT 26/04 A3004 RMK A01 T02610043  RH  025%=      5-min Rain = 0
KVA1 130844Z 28003KT 26/04 A3003 RMK A01 T02600041  RH  024%=      5-min Rain = 0
KVA1 130845Z 28004KT 26/04 A3004 RMK A01 T02590041  RH  024%=      5-min Rain = 0
KVA1 130846Z 28003KT 26/04 A3003 RMK A01 T02580039  RH  024%=      5-min Rain = 0
KVA1 130847Z 28004KT 26/04 A3004 RMK A01 T02570038  RH  024%=      5-min Rain = 0
KVA1 130848Z 28004KT 26/04 A3003 RMK A01 T02550038  RH  025%=      5-min Rain = 0
KVA1 130849Z 27004KT 25/04 A3003 RMK A01 T02540039  RH  025%=      5-min Rain = 0
KVA1 130850Z 27005KT 25/04 A3003 RMK A01 T02540039  RH  025%=      5-min Rain = 0
KVA1 130851Z 27006KT 25/04 A3003 RMK A01 T02530039  RH  025%=      5-min Rain = 0
KVA1 130852Z 27006KT 25/04 A3003 RMK A01 T02520039  RH  025%=      5-min Rain = 0
KVA1 130853Z 26006KT 25/04 A3003 RMK A01 T02510040  RH  025%=      5-min Rain = 0
KVA1 130854Z 27005KT 25/04 A3003 RMK A01 T02510040  RH  026%=      5-min Rain = 0
KVA1 130855Z 27005KT 25/04 A3004 RMK A01 T02510040  RH  026%=      5-min Rain = 0
KVA1 130856Z 27004KT 25/04 A3003 RMK A01 T02500039  RH  025%=      5-min Rain = 0
KVA1 130857Z 26006KT 25/04 A3003 RMK A01 T02500039  RH  026%=      5-min Rain = 0
KVA1 130858Z 26006KT 25/04 A3003 RMK A01 T02500041  RH  026%=      5-min Rain = 0
KVA1 130859Z 25007KT 25/04 A3003 RMK A01 T02490041  RH  026%=      5-min Rain = 0
KVA1 130900Z 25006KT 25/04 A3003 RMK A01 T02500042  RH  026%=      5-min Rain = 0
KVA1 130901Z 24006KT 25/04 A3003 RMK A01 T02510044  RH  026%=      5-min Rain = 0
KVA1 130902Z 24006KT 25/04 A3003 RMK A01 T02520044  RH  026%=      5-min Rain = 0
KVA1 130903Z 23006KT 25/04 A3003 RMK A01 T02530044  RH  026%=      5-min Rain = 0
KVA1 130904Z 23005KT 25/05 A3003 RMK A01 T02530045  RH  026%=      5-min Rain = 0
KVA1 130905Z 23005KT 25/05 A3003 RMK A01 T02530045  RH  026%=      5-min Rain = 0
KVA1 130906Z 22005KT 25/05 A3003 RMK A01 T02530045  RH  026%=      5-min Rain = 0
KVA1 130907Z 22006KT 25/05 A3003 RMK A01 T02530046  RH  026%=      5-min Rain = 0
KVA1 130908Z 23005KT 25/05 A3003 RMK A01 T02520046  RH  026%=      5-min Rain = 0
KVA1 130909Z 23006KT 25/05 A3003 RMK A01 T02520046  RH  026%=      5-min Rain = 0
KVA1 130910Z 23005KT 25/05 A3003 RMK A01 T02510045  RH  026%=      5-min Rain = 0
KVA1 130911Z 23005KT 25/05 A3003 RMK A01 T02510046  RH  027%=      5-min Rain = 0
KVA1 130912Z 23005KT 25/05 A3003 RMK A01 T02500046  RH  027%=      5-min Rain = 0
KVA1 130913Z 24005KT 25/05 A3003 RMK A01 T02500046  RH  027%=      5-min Rain = 0
KVA1 130914Z 25005KT 25/05 A3003 RMK A01 T02490047  RH  027%=      5-min Rain = 0
KVA1 130915Z 23006KT 25/05 A3003 RMK A01 T02490047  RH  027%=      5-min Rain = 0
KVA1 130916Z 23005KT 25/05 A3003 RMK A01 T02480047  RH  027%=      5-min Rain = 0
KVA1 130917Z 23006KT 25/05 A3003 RMK A01 T02480048  RH  027%=      5-min Rain = 0
KVA1 130918Z 24005KT 25/05 A3003 RMK A01 T02480048  RH  028%=      5-min Rain = 0
KVA1 130919Z 23006KT 25/05 A3003 RMK A01 T02470049  RH  028%=      5-min Rain = 0
KVA1 130920Z 22005KT 25/05 A3003 RMK A01 T02470049  RH  028%=      5-min Rain = 0
KVA1 130921Z 22006KT 25/05 A3003 RMK A01 T02470050  RH  028%=      5-min Rain = 0
KVA1 130922Z 22006KT 25/05 A3003 RMK A01 T02470051  RH  028%=      5-min Rain = 0
KVA1 130923Z 22006KT 25/05 A3003 RMK A01 T02470051  RH  028%=      5-min Rain = 0
KVA1 130924Z 23006KT 25/05 A3003 RMK A01 T02470051  RH  028%=      5-min Rain = 0
KVA1 130925Z 22006KT 25/05 A3003 RMK A01 T02460051  RH  028%=      5-min Rain = 0
KVA1 130926Z 22007KT 25/05 A3003 RMK A01 T02460052  RH  029%=      5-min Rain = 0
KVA1 130927Z 22006KT 25/05 A3003 RMK A01 T02460053  RH  029%=      5-min Rain = 0
KVA1 130928Z 22006KT 25/05 A3003 RMK A01 T02460054  RH  029%=      5-min Rain = 0
KVA1 130929Z 21006KT 25/05 A3003 RMK A01 T02460054  RH  029%=      5-min Rain = 0
KVA1 130930Z 21007KT 25/06 A3003 RMK A01 T02460055  RH  029%=      5-min Rain = 0
KVA1 130931Z 21006KT 25/06 A3003 RMK A01 T02460056  RH  029%=      5-min Rain = 0
KVA1 130932Z 21007KT 25/06 A3003 RMK A01 T02460057  RH  030%=      5-min Rain = 0
KVA1 130933Z 21007KT 25/06 A3003 RMK A01 T02470058  RH  030%=      5-min Rain = 0
KVA1 130934Z 21006KT 25/06 A3003 RMK A01 T02470058  RH  030%=      5-min Rain = 0
KVA1 130935Z 21007KT 25/06 A3003 RMK A01 T02470058  RH  030%=      5-min Rain = 0
KVA1 130936Z 21006KT 25/06 A3003 RMK A01 T02470059  RH  030%=      5-min Rain = 0
KVA1 130937Z 21006KT 25/06 A3003 RMK A01 T02470059  RH  030%=      5-min Rain = 0
KVA1 130938Z 21007KT 25/06 A3003 RMK A01 T02460060  RH  030%=      5-min Rain = 0
KVA1 130939Z 21006KT 25/06 A3003 RMK A01 T02470060  RH  030%=      5-min Rain = 0
KVA1 130940Z 21006KT 25/06 A3003 RMK A01 T02460060  RH  030%=      5-min Rain = 0
KVA1 130941Z 22006KT 25/06 A3003 RMK A01 T02460061  RH  030%=      5-min Rain = 0
KVA1 130942Z 21006KT 25/06 A3003 RMK A01 T02460061  RH  030%=      5-min Rain = 0
KVA1 130943Z 22005KT 25/06 A3003 RMK A01 T02460062  RH  031%=      5-min Rain = 0
KVA1 130944Z 21006KT 25/06 A3003 RMK A01 T02460062  RH  031%=      5-min Rain = 0
KVA1 130945Z 21007KT 25/06 A3003 RMK A01 T02450063  RH  031%=      5-min Rain = 0
KVA1 130946Z 22006KT 25/06 A3003 RMK A01 T02460064  RH  031%=      5-min Rain = 0
KVA1 130947Z 22005KT 25/06 A3003 RMK A01 T02460064  RH  031%=      5-min Rain = 0
KVA1 130948Z 23005KT 25/06 A3003 RMK A01 T02460063  RH  031%=      5-min Rain = 0
KVA1 130949Z 23005KT 24/06 A3003 RMK A01 T02440061  RH  031%=      5-min Rain = 0
KVA1 130950Z 23005KT 24/06 A3003 RMK A01 T02430060  RH  031%=      5-min Rain = 0
KVA1 130951Z 23005KT 24/06 A3003 RMK A01 T02410060  RH  031%=      5-min Rain = 0
KVA1 130952Z 23005KT 24/06 A3003 RMK A01 T02410061  RH  031%=      5-min Rain = 0
KVA1 130953Z 23006KT 24/06 A3003 RMK A01 T02400062  RH  032%=      5-min Rain = 0
KVA1 130954Z 23006KT 24/06 A3003 RMK A01 T02400062  RH  032%=      5-min Rain = 0
KVA1 130955Z 23006KT 24/06 A3003 RMK A01 T02400062  RH  032%=      5-min Rain = 0
KVA1 130956Z 23006KT 24/06 A3003 RMK A01 T02400063  RH  032%=      5-min Rain = 0
KVA1 130957Z 22006KT 24/06 A3003 RMK A01 T02400063  RH  032%=      5-min Rain = 0
KVA1 130958Z 23006KT 24/06 A3003 RMK A01 T02400064  RH  032%=      5-min Rain = 0
KVA1 130959Z 22006KT 24/06 A3003 RMK A01 T02400064  RH  032%=      5-min Rain = 0
KVA1 131000Z 22006KT 24/07 A3003 RMK A01 T02400065  RH  032%=      5-min Rain = 0
KVA1 131001Z 22006KT 24/07 A3003 RMK A01 T02400066  RH  032%=      5-min Rain = 0
KVA1 131002Z 22006KT 24/07 A3003 RMK A01 T02400066  RH  033%=      5-min Rain = 0
KVA1 131003Z 23006KT 24/07 A3003 RMK A01 T02400066  RH  033%=      5-min Rain = 0
KVA1 131004Z 22006KT 24/07 A3003 RMK A01 T02400067  RH  033%=      5-min Rain = 0
KVA1 131005Z 22007KT 24/07 A3003 RMK A01 T02400066  RH  033%=      5-min Rain = 0
KVA1 131006Z 22006KT 24/07 A3003 RMK A01 T02400067  RH  033%=      5-min Rain = 0
KVA1 131007Z 22006KT 24/07 A3003 RMK A01 T02400067  RH  033%=      5-min Rain = 0
KVA1 131008Z 22006KT 24/07 A3003 RMK A01 T02390067  RH  033%=      5-min Rain = 0
KVA1 131009Z 22006KT 24/07 A3003 RMK A01 T02390068  RH  033%=      5-min Rain = 0
KVA1 131010Z 22006KT 24/07 A3003 RMK A01 T02390069  RH  033%=      5-min Rain = 0
KVA1 131011Z 23006KT 24/07 A3003 RMK A01 T02390069  RH  034%=      5-min Rain = 0
KVA1 131012Z 22007KT 24/07 A3003 RMK A01 T02390069  RH  034%=      5-min Rain = 0
KVA1 131013Z 22007KT 24/07 A3003 RMK A01 T02390070  RH  034%=      5-min Rain = 0
KVA1 131014Z 22007KT 24/07 A3003 RMK A01 T02390070  RH  034%=      5-min Rain = 0
KVA1 131015Z 22007KT 24/07 A3003 RMK A01 T02380071  RH  034%=      5-min Rain = 0
KVA1 131016Z 22006KT 24/07 A3003 RMK A01 T02380070  RH  034%=      5-min Rain = 0
KVA1 131017Z 22006KT 24/07 A3003 RMK A01 T02380070  RH  034%=      5-min Rain = 0
KVA1 131018Z 21007KT 24/07 A3003 RMK A01 T02380071  RH  034%=      5-min Rain = 0
KVA1 131019Z 21006KT 24/07 A3003 RMK A01 T02380071  RH  034%=      5-min Rain = 0
KVA1 131020Z 22007KT 24/07 A3003 RMK A01 T02380072  RH  034%=      5-min Rain = 0
KVA1 131021Z 21006KT 24/07 A3003 RMK A01 T02380073  RH  034%=      5-min Rain = 0
KVA1 131022Z 22006KT 24/07 A3003 RMK A01 T02390073  RH  035%=      5-min Rain = 0
KVA1 131023Z 22006KT 24/07 A3003 RMK A01 T02390073  RH  035%=      5-min Rain = 0
KVA1 131024Z 22006KT 24/07 A3003 RMK A01 T02390073  RH  035%=      5-min Rain = 0
KVA1 131025Z 22006KT 24/07 A3003 RMK A01 T02390074  RH  035%=      5-min Rain = 0
KVA1 131026Z 22006KT 24/07 A3003 RMK A01 T02380074  RH  035%=      5-min Rain = 0
KVA1 131027Z 22006KT 24/07 A3003 RMK A01 T02380074  RH  035%=      5-min Rain = 0
KVA1 131028Z 22006KT 24/07 A3003 RMK A01 T02380074  RH  035%=      5-min Rain = 0
KVA1 131029Z 22006KT 24/08 A3003 RMK A01 T02390075  RH  035%=      5-min Rain = 0
KVA1 131030Z 22006KT 24/08 A3003 RMK A01 T02390075  RH  035%=      5-min Rain = 0
KVA1 131031Z 22006KT 24/08 A3004 RMK A01 T02390075  RH  035%=      5-min Rain = 0
KVA1 131032Z 23006KT 24/08 A3004 RMK A01 T02390076  RH  035%=      5-min Rain = 0
KVA1 131033Z 23005KT 24/08 A3004 RMK A01 T02390076  RH  035%=      5-min Rain = 0
KVA1 131034Z 23004KT 24/08 A3004 RMK A01 T02380075  RH  035%=      5-min Rain = 0
KVA1 131035Z 23004KT 24/08 A3004 RMK A01 T02380075  RH  035%=      5-min Rain = 0
KVA1 131036Z 23005KT 24/07 A3004 RMK A01 T02360074  RH  035%=      5-min Rain = 0
KVA1 131037Z 23004KT 24/07 A3004 RMK A01 T02350074  RH  035%=      5-min Rain = 0
KVA1 131038Z 23004KT 24/08 A3004 RMK A01 T02350075  RH  036%=      5-min Rain = 0
KVA1 131039Z 23004KT 24/08 A3004 RMK A01 T02350075  RH  036%=      5-min Rain = 0
KVA1 131040Z 24004KT 24/08 A3004 RMK A01 T02350075  RH  036%=      5-min Rain = 0
KVA1 131041Z 24004KT 23/08 A3004 RMK A01 T02340075  RH  036%=      5-min Rain = 0
KVA1 131042Z 24005KT 23/08 A3004 RMK A01 T02340075  RH  036%=      5-min Rain = 0
KVA1 131043Z 24005KT 23/08 A3004 RMK A01 T02330075  RH  036%=      5-min Rain = 0
KVA1 131044Z 24005KT 23/08 A3004 RMK A01 T02330075  RH  036%=      5-min Rain = 0
KVA1 131045Z 24005KT 23/08 A3004 RMK A01 T02320076  RH  037%=      5-min Rain = 0
KVA1 131046Z 24005KT 23/08 A3004 RMK A01 T02330076  RH  037%=      5-min Rain = 0
KVA1 131047Z 24006KT 23/08 A3004 RMK A01 T02330076  RH  037%=      5-min Rain = 0
KVA1 131048Z 23006KT 23/08 A3004 RMK A01 T02330076  RH  037%=      5-min Rain = 0
KVA1 131049Z 24005KT 23/08 A3004 RMK A01 T02330077  RH  037%=      5-min Rain = 0
KVA1 131050Z 24006KT 23/08 A3004 RMK A01 T02330076  RH  037%=      5-min Rain = 0
KVA1 131051Z 24006KT 23/08 A3004 RMK A01 T02320076  RH  037%=      5-min Rain = 0
KVA1 131052Z 23006KT 23/08 A3004 RMK A01 T02320077  RH  037%=      5-min Rain = 0
KVA1 131053Z 23006KT 23/08 A3004 RMK A01 T02320077  RH  037%=      5-min Rain = 0
KVA1 131054Z 23006KT 23/08 A3004 RMK A01 T02320078  RH  037%=      5-min Rain = 0
KVA1 131055Z 23006KT 23/08 A3004 RMK A01 T02330078  RH  037%=      5-min Rain = 0
KVA1 131056Z 23006KT 23/08 A3004 RMK A01 T02320077  RH  037%=      5-min Rain = 0
KVA1 131057Z 23006KT 23/08 A3004 RMK A01 T02320078  RH  037%=      5-min Rain = 0
KVA1 131058Z 23006KT 23/08 A3004 RMK A01 T02330079  RH  037%=      5-min Rain = 0
KVA1 131059Z 23007KT 23/08 A3004 RMK A01 T02330078  RH  037%=      5-min Rain = 0
KVA1 131100Z 22006KT 23/08 A3004 RMK A01 T02330079  RH  037%=      5-min Rain = 0
KVA1 131101Z 23006KT 23/08 A3004 RMK A01 T02330079  RH  037%=      5-min Rain = 0
KVA1 131102Z 22007KT 23/08 A3004 RMK A01 T02330079  RH  037%=      5-min Rain = 0
KVA1 131103Z 22007KT 23/08 A3004 RMK A01 T02330079  RH  037%=      5-min Rain = 0
KVA1 131104Z 22006KT 23/08 A3004 RMK A01 T02340079  RH  037%=      5-min Rain = 0
KVA1 131105Z 22006KT 23/08 A3004 RMK A01 T02340079  RH  037%=      5-min Rain = 0
KVA1 131106Z 22006KT 23/08 A3004 RMK A01 T02340079  RH  037%=      5-min Rain = 0
KVA1 131107Z 22006KT 23/08 A3004 RMK A01 T02330079  RH  037%=      5-min Rain = 0
KVA1 131108Z 22007KT 23/08 A3004 RMK A01 T02340080  RH  037%=      5-min Rain = 0
KVA1 131109Z 22006KT 23/08 A3005 RMK A01 T02330080  RH  037%=      5-min Rain = 0
KVA1 131110Z 22007KT 23/08 A3005 RMK A01 T02330080  RH  037%=      5-min Rain = 0
KVA1 131111Z 22006KT 23/08 A3005 RMK A01 T02330080  RH  037%=      5-min Rain = 0
KVA1 131112Z 22006KT 23/08 A3005 RMK A01 T02330080  RH  037%=      5-min Rain = 0
KVA1 131113Z 22006KT 23/08 A3005 RMK A01 T02330080  RH  037%=      5-min Rain = 0
KVA1 131114Z 22006KT 23/08 A3005 RMK A01 T02330080  RH  038%=      5-min Rain = 0
KVA1 131115Z 22006KT 23/08 A3005 RMK A01 T02330081  RH  038%=      5-min Rain = 0
KVA1 131116Z 22006KT 23/08 A3005 RMK A01 T02330081  RH  038%=      5-min Rain = 0
KVA1 131117Z 22007KT 23/08 A3005 RMK A01 T02320080  RH  038%=      5-min Rain = 0
KVA1 131118Z 22007KT 23/08 A3005 RMK A01 T02320080  RH  038%=      5-min Rain = 0
KVA1 131119Z 22007KT 23/08 A3005 RMK A01 T02320081  RH  038%=      5-min Rain = 0
KVA1 131120Z 22007KT 23/08 A3005 RMK A01 T02320080  RH  038%=      5-min Rain = 0
KVA1 131121Z 23007KT 23/08 A3005 RMK A01 T02310080  RH  038%=      5-min Rain = 0
KVA1 131122Z 23007KT 23/08 A3005 RMK A01 T02310080  RH  038%=      5-min Rain = 0
KVA1 131123Z 23007KT 23/08 A3005 RMK A01 T02300080  RH  038%=      5-min Rain = 0
KVA1 131124Z 23007KT 23/08 A3005 RMK A01 T02300080  RH  038%=      5-min Rain = 0
KVA1 131125Z 23007KT 23/08 A3005 RMK A01 T02300081  RH  038%=      5-min Rain = 0
KVA1 131126Z 22007KT 23/08 A3005 RMK A01 T02300081  RH  038%=      5-min Rain = 0
KVA1 131127Z 22007KT 23/08 A3005 RMK A01 T02300081  RH  039%=      5-min Rain = 0
KVA1 131128Z 22008KT 23/08 A3005 RMK A01 T02300081  RH  039%=      5-min Rain = 0
KVA1 131129Z 22008KT 23/08 A3005 RMK A01 T02300081  RH  038%=      5-min Rain = 0
KVA1 131130Z 22008KT 23/08 A3005 RMK A01 T02300081  RH  039%=      5-min Rain = 0
KVA1 131131Z 22007KT 23/08 A3005 RMK A01 T02310082  RH  039%=      5-min Rain = 0
KVA1 131132Z 22007KT 23/08 A3005 RMK A01 T02310082  RH  039%=      5-min Rain = 0
KVA1 131133Z 22007KT 23/08 A3005 RMK A01 T02300082  RH  039%=      5-min Rain = 0
KVA1 131134Z 22007KT 23/08 A3005 RMK A01 T02300082  RH  039%=      5-min Rain = 0
KVA1 131135Z 22007KT 23/08 A3005 RMK A01 T02300082  RH  039%=      5-min Rain = 0
KVA1 131136Z 22007KT 23/08 A3005 RMK A01 T02300082  RH  039%=      5-min Rain = 0
KVA1 131137Z 22008KT 23/08 A3005 RMK A01 T02300082  RH  039%=      5-min Rain = 0
KVA1 131138Z 22007KT 23/08 A3005 RMK A01 T02300082  RH  039%=      5-min Rain = 0
KVA1 131139Z 22007KT 23/08 A3005 RMK A01 T02300082  RH  039%=      5-min Rain = 0
KVA1 131140Z 22007KT 23/08 A3005 RMK A01 T02300083  RH  039%=      5-min Rain = 0
KVA1 131141Z 22007KT 23/08 A3005 RMK A01 T02300083  RH  039%=      5-min Rain = 0
KVA1 131142Z 22007KT 23/08 A3005 RMK A01 T02300083  RH  039%=      5-min Rain = 0
KVA1 131143Z 22007KT 23/08 A3005 RMK A01 T02310084  RH  039%=      5-min Rain = 0
KVA1 131144Z 22007KT 23/08 A3005 RMK A01 T02310083  RH  039%=      5-min Rain = 0
KVA1 131145Z 22006KT 23/08 A3005 RMK A01 T02310083  RH  039%=      5-min Rain = 0
KVA1 131146Z 22006KT 23/08 A3005 RMK A01 T02310083  RH  039%=      5-min Rain = 0
KVA1 131147Z 22007KT 23/08 A3005 RMK A01 T02300083  RH  039%=      5-min Rain = 0
KVA1 131148Z 22006KT 23/08 A3005 RMK A01 T02300083  RH  039%=      5-min Rain = 0
KVA1 131149Z 22006KT 23/08 A3005 RMK A01 T02300083  RH  039%=      5-min Rain = 0
KVA1 131150Z 22006KT 23/08 A3005 RMK A01 T02300084  RH  039%=      5-min Rain = 0
KVA1 131151Z 23006KT 23/08 A3005 RMK A01 T02300084  RH  039%=      5-min Rain = 0
KVA1 131152Z 23006KT 23/08 A3005 RMK A01 T02300083  RH  039%=      5-min Rain = 0
KVA1 131153Z 23005KT 23/08 A3005 RMK A01 T02290083  RH  039%=      5-min Rain = 0
KVA1 131154Z 23006KT 23/08 A3005 RMK A01 T02290083  RH  039%=      5-min Rain = 0
KVA1 131155Z 23006KT 23/08 A3005 RMK A01 T02280083  RH  039%=      5-min Rain = 0
KVA1 131156Z 23006KT 23/08 A3006 RMK A01 T02280083  RH  039%=      5-min Rain = 0
KVA1 131157Z 24005KT 23/08 A3006 RMK A01 T02280083  RH  039%=      5-min Rain = 0
KVA1 131158Z 24005KT 23/08 A3006 RMK A01 T02280083  RH  040%=      5-min Rain = 0
KVA1 131159Z 24005KT 23/08 A3006 RMK A01 T02270083  RH  040%=      5-min Rain = 0
KVA1 131200Z 24005KT 23/08 A3006 RMK A01 T02270083  RH  040%=      5-min Rain = 0
KVA1 131201Z 24005KT 23/08 A3006 RMK A01 T02270083  RH  040%=      5-min Rain = 0
KVA1 131202Z 25005KT 23/08 A3006 RMK A01 T02260083  RH  040%=      5-min Rain = 0
KVA1 131203Z 25005KT 23/08 A3006 RMK A01 T02260083  RH  040%=      5-min Rain = 0
KVA1 131204Z 25006KT 23/08 A3006 RMK A01 T02260083  RH  040%=      5-min Rain = 0
KVA1 131205Z 25006KT 23/08 A3006 RMK A01 T02260083  RH  040%=      5-min Rain = 0
KVA1 131206Z 25006KT 23/08 A3006 RMK A01 T02250083  RH  040%=      5-min Rain = 0
KVA1 131207Z 25005KT 23/08 A3006 RMK A01 T02250083  RH  040%=      5-min Rain = 0
KVA1 131208Z 25005KT 22/08 A3006 RMK A01 T02240082  RH  040%=      5-min Rain = 0
KVA1 131209Z 24005KT 22/08 A3006 RMK A01 T02240082  RH  040%=      5-min Rain = 0
KVA1 131210Z 24006KT 22/08 A3006 RMK A01 T02230082  RH  040%=      5-min Rain = 0
KVA1 131211Z 24006KT 22/08 A3006 RMK A01 T02230082  RH  041%=      5-min Rain = 0
KVA1 131212Z 23005KT 22/08 A3006 RMK A01 T02230083  RH  041%=      5-min Rain = 0
KVA1 131213Z 23006KT 22/08 A3006 RMK A01 T02230083  RH  041%=      5-min Rain = 0
KVA1 131214Z 23006KT 22/08 A3006 RMK A01 T02240084  RH  040%=      5-min Rain = 0
KVA1 131215Z 22007KT 23/08 A3006 RMK A01 T02250084  RH  040%=      5-min Rain = 0
KVA1 131216Z 22006KT 23/08 A3006 RMK A01 T02260084  RH  040%=      5-min Rain = 0
KVA1 131217Z 22007KT 23/08 A3006 RMK A01 T02260084  RH  040%=      5-min Rain = 0
KVA1 131218Z 22008KT 23/08 A3006 RMK A01 T02260083  RH  040%=      5-min Rain = 0
KVA1 131219Z 22007KT 23/08 A3006 RMK A01 T02270084  RH  040%=      5-min Rain = 0
KVA1 131220Z 23007KT 23/08 A3006 RMK A01 T02270084  RH  040%=      5-min Rain = 0
KVA1 131221Z 23008KT 23/08 A3006 RMK A01 T02270084  RH  040%=      5-min Rain = 0
KVA1 131222Z 22008KT 23/08 A3006 RMK A01 T02270084  RH  040%=      5-min Rain = 0
KVA1 131223Z 23008KT 23/08 A3006 RMK A01 T02270084  RH  040%=      5-min Rain = 0
KVA1 131224Z 22007KT 23/08 A3006 RMK A01 T02280084  RH  040%=      5-min Rain = 0
KVA1 131225Z 23007KT 23/08 A3006 RMK A01 T02270084  RH  040%=      5-min Rain = 0
KVA1 131226Z 23008KT 23/08 A3006 RMK A01 T02270084  RH  040%=      5-min Rain = 0
KVA1 131227Z 23008KT 23/08 A3006 RMK A01 T02280084  RH  040%=      5-min Rain = 0
KVA1 131228Z 23008KT 23/08 A3006 RMK A01 T02280084  RH  040%=      5-min Rain = 0
KVA1 131229Z 23008KT 23/08 A3006 RMK A01 T02280084  RH  040%=      5-min Rain = 0
KVA1 131230Z 23009KT 23/08 A3006 RMK A01 T02290084  RH  040%=      5-min Rain = 0
KVA1 131231Z 23009KT 23/08 A3006 RMK A01 T02290084  RH  039%=      5-min Rain = 0
KVA1 131232Z 22008KT 23/08 A3006 RMK A01 T02300084  RH  039%=      5-min Rain = 0
KVA1 131233Z 22008KT 23/08 A3006 RMK A01 T02300084  RH  039%=      5-min Rain = 0
KVA1 131234Z 22009KT 23/09 A3006 RMK A01 T02310085  RH  039%=      5-min Rain = 0
KVA1 131235Z 22008KT 23/09 A3006 RMK A01 T02310085  RH  039%=      5-min Rain = 0
KVA1 131236Z 22009KT 23/09 A3006 RMK A01 T02310085  RH  039%=      5-min Rain = 0
KVA1 131237Z 23008KT 23/09 A3006 RMK A01 T02320085  RH  039%=      5-min Rain = 0
KVA1 131238Z 22008KT 23/09 A3006 RMK A01 T02310085  RH  039%=      5-min Rain = 0
KVA1 131239Z 22008KT 23/09 A3006 RMK A01 T02320085  RH  039%=      5-min Rain = 0
KVA1 131240Z 22008KT 23/09 A3006 RMK A01 T02320085  RH  039%=      5-min Rain = 0
KVA1 131241Z 23007KT 23/09 A3006 RMK A01 T02320085  RH  039%=      5-min Rain = 0
KVA1 131242Z 23006KT 23/09 A3006 RMK A01 T02330085  RH  039%=      5-min Rain = 0
KVA1 131243Z 23007KT 23/09 A3006 RMK A01 T02330085  RH  039%=      5-min Rain = 0
KVA1 131244Z 24007KT 23/09 A3007 RMK A01 T02330085  RH  039%=      5-min Rain = 0
KVA1 131245Z 24007KT 23/09 A3007 RMK A01 T02340085  RH  039%=      5-min Rain = 0
KVA1 131246Z 24007KT 23/09 A3007 RMK A01 T02340085  RH  039%=      5-min Rain = 0
KVA1 131247Z 25006KT 24/09 A3007 RMK A01 T02350085  RH  038%=      5-min Rain = 0
KVA1 131248Z 25007KT 24/09 A3007 RMK A01 T02350085  RH  038%=      5-min Rain = 0
KVA1 131249Z 25007KT 24/09 A3007 RMK A01 T02350085  RH  038%=      5-min Rain = 0
KVA1 131250Z 25007KT 24/09 A3007 RMK A01 T02350085  RH  038%=      5-min Rain = 0
KVA1 131251Z 25008KT 24/09 A3007 RMK A01 T02360085  RH  038%=      5-min Rain = 0
KVA1 131252Z 24008KT 24/09 A3007 RMK A01 T02370086  RH  038%=      5-min Rain = 0
KVA1 131253Z 24008KT 24/09 A3007 RMK A01 T02370086  RH  038%=      5-min Rain = 0
KVA1 131254Z 23009KT 24/09 A3007 RMK A01 T02370086  RH  038%=      5-min Rain = 0
KVA1 131255Z 23008KT 24/09 A3007 RMK A01 T02380086  RH  038%=      5-min Rain = 0
KVA1 131256Z 22010KT 24/09 A3007 RMK A01 T02380086  RH  038%=      5-min Rain = 0
KVA1 131257Z 22009KT 24/09 A3007 RMK A01 T02390086  RH  038%=      5-min Rain = 0
KVA1 131258Z 22009KT 24/09 A3007 RMK A01 T02390086  RH  038%=      5-min Rain = 0
KVA1 131259Z 22008KT 24/09 A3007 RMK A01 T02400086  RH  038%=      5-min Rain = 0
KVA1 131300Z 22008KT 24/09 A3007 RMK A01 T02400086  RH  037%=      5-min Rain = 0
KVA1 131301Z 22009KT 24/09 A3007 RMK A01 T02400086  RH  037%=      5-min Rain = 0
KVA1 131302Z 22009KT 24/09 A3007 RMK A01 T02400086  RH  037%=      5-min Rain = 0
KVA1 131303Z 22007KT 24/09 A3007 RMK A01 T02410087  RH  037%=      5-min Rain = 0
KVA1 131304Z 22008KT 24/09 A3007 RMK A01 T02410087  RH  037%=      5-min Rain = 0
KVA1 131305Z 21008KT 24/09 A3007 RMK A01 T02420087  RH  037%=      5-min Rain = 0
KVA1 131306Z 22009KT 24/09 A3007 RMK A01 T02420087  RH  037%=      5-min Rain = 0
KVA1 131307Z 21008KT 24/09 A3007 RMK A01 T02430087  RH  037%=      5-min Rain = 0
KVA1 131308Z 21008KT 24/09 A3007 RMK A01 T02440087  RH  037%=      5-min Rain = 0
KVA1 131309Z 21008KT 24/09 A3007 RMK A01 T02440087  RH  037%=      5-min Rain = 0
KVA1 131310Z 21009KT 25/09 A3007 RMK A01 T02450088  RH  037%=      5-min Rain = 0
KVA1 131311Z 20009KT 25/09 A3007 RMK A01 T02460088  RH  037%=      5-min Rain = 0
KVA1 131312Z 20010KT 25/09 A3007 RMK A01 T02470088  RH  036%=      5-min Rain = 0
KVA1 131313Z 21011KT 25/09 A3006 RMK A01 T02480088  RH  036%=      5-min Rain = 0
KVA1 131314Z 20009KT 25/09 A3007 RMK A01 T02490088  RH  036%=      5-min Rain = 0
KVA1 131315Z 21009KT 25/09 A3007 RMK A01 T02490088  RH  036%=      5-min Rain = 0
KVA1 131316Z 21010KT 25/09 A3007 RMK A01 T02500089  RH  036%=      5-min Rain = 0
KVA1 131317Z 21009KT 25/09 A3007 RMK A01 T02510088  RH  036%=      5-min Rain = 0
KVA1 131318Z 21009KT 25/09 A3007 RMK A01 T02510088  RH  036%=      5-min Rain = 0
KVA1 131319Z 21009KT 25/09 A3007 RMK A01 T02510088  RH  036%=      5-min Rain = 0
KVA1 131320Z 21010KT 25/09 A3007 RMK A01 T02520089  RH  035%=      5-min Rain = 0
KVA1 131321Z 21009KT 25/09 A3007 RMK A01 T02520089  RH  035%=      5-min Rain = 0
KVA1 131322Z 21010KT 25/09 A3007 RMK A01 T02530089  RH  035%=      5-min Rain = 0
KVA1 131323Z 21009KT 25/09 A3007 RMK A01 T02530088  RH  035%=      5-min Rain = 0
KVA1 131324Z 21008KT 25/09 A3007 RMK A01 T02540089  RH  035%=      5-min Rain = 0
KVA1 131325Z 21009KT 25/09 A3007 RMK A01 T02540089  RH  035%=      5-min Rain = 0
KVA1 131326Z 21007KT 25/09 A3007 RMK A01 T02540089  RH  035%=      5-min Rain = 0
KVA1 131327Z 21008KT 25/09 A3007 RMK A01 T02540089  RH  035%=      5-min Rain = 0
KVA1 131328Z 21007KT 26/09 A3007 RMK A01 T02550089  RH  035%=      5-min Rain = 0
KVA1 131329Z 20008KT 26/09 A3007 RMK A01 T02550089  RH  035%=      5-min Rain = 0
KVA1 131330Z 20007KT 26/09 A3008 RMK A01 T02560089  RH  035%=      5-min Rain = 0
KVA1 131331Z 21008KT 26/09 A3008 RMK A01 T02560090  RH  035%=      5-min Rain = 0
KVA1 131332Z 20008KT 26/09 A3008 RMK A01 T02570089  RH  035%=      5-min Rain = 0
KVA1 131333Z 20008KT 26/09 A3008 RMK A01 T02570089  RH  035%=      5-min Rain = 0
KVA1 131334Z 20010KT 26/09 A3008 RMK A01 T02580090  RH  034%=      5-min Rain = 0
KVA1 131335Z 20009KT 26/09 A3008 RMK A01 T02580089  RH  034%=      5-min Rain = 0
KVA1 131336Z 20008KT 26/09 A3008 RMK A01 T02580090  RH  034%=      5-min Rain = 0
KVA1 131337Z 20007KT 26/09 A3008 RMK A01 T02580090  RH  034%=      5-min Rain = 0
KVA1 131338Z 20009KT 26/09 A3008 RMK A01 T02590090  RH  034%=      5-min Rain = 0
KVA1 131339Z 20008KT 26/09 A3008 RMK A01 T02590089  RH  034%=      5-min Rain = 0
KVA1 131340Z 20006KT 26/09 A3008 RMK A01 T02600090  RH  034%=      5-min Rain = 0
KVA1 131341Z 21008KT 26/09 A3008 RMK A01 T02600090  RH  034%=      5-min Rain = 0
KVA1 131342Z 20010KT 26/09 A3008 RMK A01 T02600090  RH  034%=      5-min Rain = 0
KVA1 131343Z 20006KT 26/09 A3008 RMK A01 T02610090  RH  034%=      5-min Rain = 0
KVA1 131344Z 21008KT 26/09 A3008 RMK A01 T02610091  RH  034%=      5-min Rain = 0
KVA1 131345Z 21009KT 26/09 A3008 RMK A01 T02620090  RH  034%=      5-min Rain = 0
KVA1 131346Z 20008KT 26/09 A3008 RMK A01 T02620090  RH  034%=      5-min Rain = 0
KVA1 131347Z 21008KT 26/09 A3008 RMK A01 T02620091  RH  034%=      5-min Rain = 0
KVA1 131348Z 20008KT 26/09 A3008 RMK A01 T02630090  RH  034%=      5-min Rain = 0
KVA1 131349Z 20007KT 26/09 A3008 RMK A01 T02630091  RH  034%=      5-min Rain = 0
KVA1 131350Z 21007KT 26/09 A3008 RMK A01 T02640091  RH  034%=      5-min Rain = 0
KVA1 131351Z 20007KT 27/09 A3008 RMK A01 T02650091  RH  033%=      5-min Rain = 0
KVA1 131352Z 20006KT 27/09 A3008 RMK A01 T02650091  RH  033%=      5-min Rain = 0
KVA1 131353Z 21009KT 27/09 A3008 RMK A01 T02670091  RH  033%=      5-min Rain = 0
KVA1 131354Z 20008KT 27/09 A3008 RMK A01 T02670091  RH  033%=      5-min Rain = 0
KVA1 131355Z 20009KT 27/09 A3008 RMK A01 T02670091  RH  033%=      5-min Rain = 0
KVA1 131356Z 20008KT 27/09 A3008 RMK A01 T02680091  RH  033%=      5-min Rain = 0
KVA1 131357Z 20010KT 27/09 A3008 RMK A01 T02680091  RH  033%=      5-min Rain = 0
KVA1 131358Z 20008KT 27/09 A3009 RMK A01 T02680091  RH  033%=      5-min Rain = 0
KVA1 131359Z 20007KT 27/09 A3009 RMK A01 T02680091  RH  033%=      5-min Rain = 0
KVA1 131400Z 20006KT 27/09 A3009 RMK A01 T02690092  RH  033%=      5-min Rain = 0
KVA1 131401Z 21008KT 27/09 A3009 RMK A01 T02700092  RH  033%=      5-min Rain = 0
KVA1 131402Z 21007KT 27/09 A3009 RMK A01 T02710092  RH  032%=      5-min Rain = 0
KVA1 131403Z 21006KT 27/09 A3009 RMK A01 T02720092  RH  032%=      5-min Rain = 0
KVA1 131404Z 20006KT 27/09 A3009 RMK A01 T02740093  RH  032%=      5-min Rain = 0
KVA1 131405Z 20006KT 27/09 A3009 RMK A01 T02740093  RH  032%=      5-min Rain = 0
KVA1 131406Z 21009KT 27/09 A3009 RMK A01 T02740092  RH  032%=      5-min Rain = 0
KVA1 131407Z 21008KT 27/09 A3009 RMK A01 T02740092  RH  032%=      5-min Rain = 0
KVA1 131408Z 20005KT 27/09 A3009 RMK A01 T02740093  RH  032%=      5-min Rain = 0
KVA1 131409Z 20006KT 28/09 A3009 RMK A01 T02760094  RH  032%=      5-min Rain = 0
KVA1 131410Z 20008KT 28/09 A3009 RMK A01 T02770092  RH  031%=      5-min Rain = 0
KVA1 131411Z 20009KT 28/09 A3009 RMK A01 T02770093  RH  031%=      5-min Rain = 0
KVA1 131412Z 20008KT 28/09 A3009 RMK A01 T02770092  RH  031%=      5-min Rain = 0
KVA1 131413Z 20007KT 28/09 A3009 RMK A01 T02770092  RH  031%=      5-min Rain = 0
KVA1 131414Z 20008KT 28/09 A3009 RMK A01 T02770092  RH  031%=      5-min Rain = 0
KVA1 131415Z 20007KT 28/09 A3009 RMK A01 T02780092  RH  031%=      5-min Rain = 0
KVA1 131416Z 21009KT 28/09 A3009 RMK A01 T02790092  RH  031%=      5-min Rain = 0
KVA1 131417Z 20008KT 28/09 A3009 RMK A01 T02800092  RH  031%=      5-min Rain = 0
KVA1 131418Z 19007KT 28/09 A3009 RMK A01 T02800092  RH  031%=      5-min Rain = 0
KVA1 131419Z 20006KT 28/09 A3009 RMK A01 T02810093  RH  031%=      5-min Rain = 0
KVA1 131420Z 21006KT 28/09 A3009 RMK A01 T02830093  RH  030%=      5-min Rain = 0
KVA1 131421Z 21007KT 29/09 A3009 RMK A01 T02850093  RH  030%=      5-min Rain = 0
KVA1 131422Z 20007KT 29/09 A3009 RMK A01 T02850092  RH  030%=      5-min Rain = 0
KVA1 131423Z 20006KT 29/09 A3009 RMK A01 T02860093  RH  030%=      5-min Rain = 0
KVA1 131424Z 20007KT 29/09 A3009 RMK A01 T02870093  RH  030%=      5-min Rain = 0
KVA1 131425Z 19006KT 29/09 A3009 RMK A01 T02870092  RH  030%=      5-min Rain = 0
KVA1 131426Z 20005KT 29/09 A3009 RMK A01 T02870093  RH  030%=      5-min Rain = 0
KVA1 131427Z 18006KT 29/09 A3009 RMK A01 T02880093  RH  030%=      5-min Rain = 0
KVA1 131428Z 19006KT 29/09 A3009 RMK A01 T02880092  RH  029%=      5-min Rain = 0
KVA1 131429Z 20005KT 29/09 A3009 RMK A01 T02880092  RH  029%=      5-min Rain = 0
KVA1 131430Z 21006KT 29/09 A3009 RMK A01 T02900093  RH  029%=      5-min Rain = 0
KVA1 131431Z 20007KT 29/09 A3009 RMK A01 T02920093  RH  029%=      5-min Rain = 0
KVA1 131432Z 21007KT 29/09 A3009 RMK A01 T02940093  RH  029%=      5-min Rain = 0
KVA1 131433Z 19007KT 30/09 A3009 RMK A01 T02950093  RH  028%=      5-min Rain = 0
KVA1 131434Z 21007KT 30/09 A3009 RMK A01 T02960093  RH  028%=      5-min Rain = 0
KVA1 131435Z 21009KT 30/09 A3009 RMK A01 T02960092  RH  028%=      5-min Rain = 0
KVA1 131436Z 20008KT 30/09 A3009 RMK A01 T02970091  RH  028%=      5-min Rain = 0
KVA1 131437Z 20009KT 30/09 A3009 RMK A01 T02970091  RH  028%=      5-min Rain = 0
KVA1 131438Z 20009KT 30/09 A3009 RMK A01 T02960092  RH  028%=      5-min Rain = 0
KVA1 131439Z 20006KT 30/09 A301 RMK A01 T02970093  RH  028%=      5-min Rain = 0
KVA1 131440Z 20007KT 30/09 A301 RMK A01 T02980093  RH  028%=      5-min Rain = 0
KVA1 131441Z 20005KT 30/09 A301 RMK A01 T02980094  RH  028%=      5-min Rain = 0
KVA1 131442Z 18005KT 30/09 A301 RMK A01 T02990092  RH  028%=      5-min Rain = 0
KVA1 131443Z 21008KT 30/09 A301 RMK A01 T02990093  RH  028%=      5-min Rain = 0
KVA1 131444Z 21007KT 30/09 A301 RMK A01 T03000091  RH  027%=      5-min Rain = 0
KVA1 131445Z 19006KT 30/09 A301 RMK A01 T03000092  RH  028%=      5-min Rain = 0
KVA1 131446Z 20005KT 30/09 A301 RMK A01 T03000094  RH  028%=      5-min Rain = 0
KVA1 131447Z 19005KT 30/09 A301 RMK A01 T03010094  RH  027%=      5-min Rain = 0
KVA1 131448Z 18008KT 30/09 A301 RMK A01 T03030093  RH  027%=      5-min Rain = 0
KVA1 131449Z 19009KT 30/09 A301 RMK A01 T03040091  RH  027%=      5-min Rain = 0
KVA1 131450Z 20007KT 30/09 A301 RMK A01 T03040091  RH  027%=      5-min Rain = 0
KVA1 131451Z 20006KT 31/09 A301 RMK A01 T03050093  RH  027%=      5-min Rain = 0
KVA1 131452Z 18006KT 31/09 A301 RMK A01 T03060093  RH  027%=      5-min Rain = 0
KVA1 131453Z 18010KT 31/09 A301 RMK A01 T03080093  RH  026%=      5-min Rain = 0
KVA1 131454Z 18009KT 31/09 A301 RMK A01 T03060091  RH  026%=      5-min Rain = 0
KVA1 131455Z 18008KT 31/09 A301 RMK A01 T03050091  RH  026%=      5-min Rain = 0
KVA1 131456Z 17008KT 31/09 A301 RMK A01 T03050091  RH  026%=      5-min Rain = 0
KVA1 131457Z 16008KT 31/09 A301 RMK A01 T03050090  RH  026%=      5-min Rain = 0
KVA1 131458Z 16009KT 31/09 A301 RMK A01 T03050091  RH  026%=      5-min Rain = 0
KVA1 131459Z 18008KT 31/09 A301 RMK A01 T03070091  RH  026%=      5-min Rain = 0
KVA1 131500Z 18007KT 31/09 A301 RMK A01 T03070092  RH  026%=      5-min Rain = 0
KVA1 131501Z 17007KT 31/09 A301 RMK A01 T03080093  RH  026%=      5-min Rain = 0
KVA1 131502Z 17007KT 31/09 A301 RMK A01 T03100092  RH  026%=      5-min Rain = 0
KVA1 131503Z 16009KT 31/09 A301 RMK A01 T03120091  RH  025%=      5-min Rain = 0
KVA1 131504Z 18007KT 31/09 A301 RMK A01 T03110091  RH  025%=      5-min Rain = 0
KVA1 131505Z 18009KT 31/09 A301 RMK A01 T03100091  RH  026%=      5-min Rain = 0
KVA1 131506Z 20006KT 31/09 A301 RMK A01 T03090091  RH  026%=      5-min Rain = 0
KVA1 131507Z 20005KT 31/09 A3009 RMK A01 T03090091  RH  026%=      5-min Rain = 0
KVA1 131508Z 18008KT 31/09 A3009 RMK A01 T03090092  RH  026%=      5-min Rain = 0
KVA1 131509Z 17007KT 31/09 A301 RMK A01 T03100092  RH  026%=      5-min Rain = 0
KVA1 131510Z 18008KT 31/09 A3009 RMK A01 T03100092  RH  026%=      5-min Rain = 0
KVA1 131511Z 17009KT 31/09 A3009 RMK A01 T03110092  RH  026%=      5-min Rain = 0
KVA1 131512Z 16007KT 31/09 A3009 RMK A01 T03110091  RH  026%=      5-min Rain = 0
KVA1 131513Z 17006KT 31/09 A3009 RMK A01 T03120092  RH  026%=      5-min Rain = 0
KVA1 131514Z 19006KT 31/09 A3009 RMK A01 T03130092  RH  025%=      5-min Rain = 0
KVA1 131515Z 17007KT 32/09 A3009 RMK A01 T03150092  RH  025%=      5-min Rain = 0
KVA1 131516Z 17007KT 32/09 A3009 RMK A01 T03160092  RH  025%=      5-min Rain = 0
KVA1 131517Z 19010KT 32/09 A3009 RMK A01 T03180090  RH  024%=      5-min Rain = 0
KVA1 131518Z 19008KT 32/09 A3009 RMK A01 T03180088  RH  024%=      5-min Rain = 0
KVA1 131519Z 18007KT 32/09 A3009 RMK A01 T03160089  RH  024%=      5-min Rain = 0
KVA1 131520Z 19007KT 32/09 A3009 RMK A01 T03180090  RH  024%=      5-min Rain = 0
KVA1 131521Z 20006KT 32/09 A3009 RMK A01 T03190088  RH  024%=      5-min Rain = 0
KVA1 131522Z 20007KT 32/09 A3009 RMK A01 T03190090  RH  024%=      5-min Rain = 0
KVA1 131523Z 19008KT 32/09 A3009 RMK A01 T03220091  RH  024%=      5-min Rain = 0
KVA1 131524Z 19008KT 32/09 A3009 RMK A01 T03220089  RH  024%=      5-min Rain = 0
KVA1 131525Z 19006KT 32/09 A3009 RMK A01 T03210089  RH  024%=      5-min Rain = 0
KVA1 131526Z 19006KT 32/09 A3009 RMK A01 T03210089  RH  024%=      5-min Rain = 0
KVA1 131527Z 17008KT 32/09 A3009 RMK A01 T03210089  RH  024%=      5-min Rain = 0
KVA1 131528Z 18008KT 32/09 A3009 RMK A01 T03230089  RH  024%=      5-min Rain = 0
KVA1 131529Z 17007KT 32/09 A3009 RMK A01 T03240089  RH  023%=      5-min Rain = 0
KVA1 131530Z 17008KT 33/09 A3009 RMK A01 T03250089  RH  023%=      5-min Rain = 0
KVA1 131531Z 20008KT 33/09 A3009 RMK A01 T03270090  RH  023%=      5-min Rain = 0
KVA1 131532Z 20007KT 33/09 A3009 RMK A01 T03290087  RH  022%=      5-min Rain = 0
KVA1 131533Z 18005KT 33/09 A3009 RMK A01 T03280087  RH  023%=      5-min Rain = 0
KVA1 131534Z 20007KT 33/09 A3009 RMK A01 T03270088  RH  023%=      5-min Rain = 0
KVA1 131535Z 17006KT 33/09 A3009 RMK A01 T03280089  RH  023%=      5-min Rain = 0
KVA1 131536Z 19008KT 33/09 A3009 RMK A01 T03280089  RH  023%=      5-min Rain = 0
KVA1 131537Z 19008KT 33/09 A3009 RMK A01 T03260087  RH  023%=      5-min Rain = 0
KVA1 131538Z 20006KT 33/09 A3009 RMK A01 T03260087  RH  023%=      5-min Rain = 0
KVA1 131539Z 20005KT 33/09 A3009 RMK A01 T03300089  RH  023%=      5-min Rain = 0
KVA1 131540Z 17004KT 33/09 A3009 RMK A01 T03320090  RH  022%=      5-min Rain = 0
KVA1 131541Z 19008KT 33/09 A3009 RMK A01 T03330089  RH  022%=      5-min Rain = 0
KVA1 131542Z 19009KT 33/09 A3009 RMK A01 T03340089  RH  022%=      5-min Rain = 0
KVA1 131543Z 19009KT 33/09 A3009 RMK A01 T03340088  RH  022%=      5-min Rain = 0
KVA1 131544Z 19007KT 33/09 A3009 RMK A01 T03340086  RH  022%=      5-min Rain = 0
KVA1 131545Z 20005KT 33/09 A3009 RMK A01 T03320087  RH  022%=      5-min Rain = 0
KVA1 131546Z 19006KT 33/09 A3009 RMK A01 T03320087  RH  022%=      5-min Rain = 0
KVA1 131547Z 20008KT 33/09 A3009 RMK A01 T03340085  RH  022%=      5-min Rain = 0
KVA1 131548Z 21008KT 34/08 A3009 RMK A01 T03350083  RH  021%=      5-min Rain = 0
KVA1 131549Z 21006KT 34/08 A3009 RMK A01 T03360082  RH  021%=      5-min Rain = 0
KVA1 131550Z 19008KT 34/08 A3009 RMK A01 T03370084  RH  021%=      5-min Rain = 0
KVA1 131551Z 19006KT 34/08 A3009 RMK A01 T03370083  RH  021%=      5-min Rain = 0
KVA1 131552Z 19007G12KT 34/09 A3009 RMK A01 T03370086  RH  021%=      5-min Rain = 0
KVA1 131553Z 18010KT 34/08 A3009 RMK A01 T03390084  RH  021%=      5-min Rain = 0
KVA1 131554Z 18009KT 34/08 A3009 RMK A01 T03390084  RH  021%=      5-min Rain = 0
KVA1 131555Z 18008KT 34/08 A3009 RMK A01 T03370083  RH  021%=      5-min Rain = 0
KVA1 131556Z 17007KT 34/09 A3009 RMK A01 T03360085  RH  021%=      5-min Rain = 0
KVA1 131557Z 18010KT 34/09 A3009 RMK A01 T03360085  RH  021%=      5-min Rain = 0
KVA1 131558Z 20009KT 34/09 A3009 RMK A01 T03370085  RH  021%=      5-min Rain = 0
KVA1 131559Z 19009KT 34/09 A3009 RMK A01 T03360085  RH  021%=      5-min Rain = 0
KVA1 131600Z 18009KT 34/09 A3009 RMK A01 T03380085  RH  021%=      5-min Rain = 0
KVA1 131601Z 20009KT 34/08 A3008 RMK A01 T03390083  RH  021%=      5-min Rain = 0
KVA1 131602Z 19007KT 34/08 A3009 RMK A01 T03410084  RH  021%=      5-min Rain = 0
KVA1 131603Z 18011KT 35/09 A3008 RMK A01 T03450085  RH  020%=      5-min Rain = 0
KVA1 131604Z 18009KT 34/08 A3008 RMK A01 T03440083  RH  020%=      5-min Rain = 0
KVA1 131605Z 18010KT 34/08 A3008 RMK A01 T03440083  RH  020%=      5-min Rain = 0
KVA1 131606Z 17009KT 34/08 A3008 RMK A01 T03440084  RH  020%=      5-min Rain = 0
KVA1 131607Z 18009KT 35/08 A3008 RMK A01 T03450083  RH  020%=      5-min Rain = 0
KVA1 131608Z 18009KT 35/08 A3008 RMK A01 T03450081  RH  020%=      5-min Rain = 0
KVA1 131609Z 18010KT 35/09 A3008 RMK A01 T03470085  RH  020%=      5-min Rain = 0
KVA1 131610Z 17010KT 35/08 A3008 RMK A01 T03480084  RH  020%=      5-min Rain = 0
KVA1 131611Z 16010KT 35/08 A3008 RMK A01 T03480084  RH  020%=      5-min Rain = 0
KVA1 131612Z 18010KT 35/08 A3008 RMK A01 T03470083  RH  020%=      5-min Rain = 0
KVA1 131613Z 20010KT 35/08 A3008 RMK A01 T03470082  RH  020%=      5-min Rain = 0
KVA1 131614Z 18011KT 35/08 A3008 RMK A01 T03490083  RH  020%=      5-min Rain = 0
KVA1 131615Z 20012KT 35/07 A3008 RMK A01 T03500073  RH  018%=      5-min Rain = 0
KVA1 131616Z 23008KT 35/06 A3008 RMK A01 T03500064  RH  017%=      5-min Rain = 0
KVA1 131617Z 19009KT 35/07 A3008 RMK A01 T03500067  RH  017%=      5-min Rain = 0
KVA1 131618Z 20010KT 35/06 A3008 RMK A01 T03530060  RH  016%=      5-min Rain = 0
KVA1 131619Z 22012KT 36/05 A3008 RMK A01 T03550054  RH  015%=      5-min Rain = 0
KVA1 131620Z 21010KT 36/05 A3008 RMK A01 T03550052  RH  015%=      5-min Rain = 0
KVA1 131621Z 20009KT 36/05 A3008 RMK A01 T03560054  RH  015%=      5-min Rain = 0
KVA1 131622Z 22007KT 36/06 A3008 RMK A01 T03570056  RH  016%=      5-min Rain = 0
KVA1 131623Z 22008KT 36/06 A3008 RMK A01 T03580055  RH  015%=      5-min Rain = 0
KVA1 131624Z 24010KT 36/05 A3008 RMK A01 T03580054  RH  015%=      5-min Rain = 0
KVA1 131625Z 24009KT 36/05 A3008 RMK A01 T03580053  RH  015%=      5-min Rain = 0
KVA1 131626Z 22010KT 36/05 A3008 RMK A01 T03580051  RH  015%=      5-min Rain = 0
KVA1 131627Z 21008KT 36/05 A3008 RMK A01 T03560054  RH  015%=      5-min Rain = 0
KVA1 131628Z 20006KT 36/05 A3008 RMK A01 T03580054  RH  015%=      5-min Rain = 0
KVA1 131629Z 22009KT 36/05 A3008 RMK A01 T03590054  RH  015%=      5-min Rain = 0
KVA1 131630Z 22009KT 36/06 A3008 RMK A01 T03600055  RH  015%=      5-min Rain = 0
KVA1 131631Z 21007KT 36/06 A3008 RMK A01 T03580055  RH  015%=      5-min Rain = 0
KVA1 131632Z 21009KT 36/05 A3008 RMK A01 T03570053  RH  015%=      5-min Rain = 0
KVA1 131633Z 22007KT 35/05 A3008 RMK A01 T03540050  RH  015%=      5-min Rain = 0
KVA1 131634Z 19010KT 36/05 A3007 RMK A01 T03560053  RH  015%=      5-min Rain = 0
KVA1 131635Z 20011KT 36/05 A3007 RMK A01 T03600054  RH  015%=      5-min Rain = 0
KVA1 131636Z 22010KT 36/05 A3008 RMK A01 T03600053  RH  015%=      5-min Rain = 0
KVA1 131637Z 22008KT 36/05 A3008 RMK A01 T03580052  RH  015%=      5-min Rain = 0
KVA1 131638Z 21006KT 36/05 A3008 RMK A01 T03580053  RH  015%=      5-min Rain = 0
KVA1 131639Z 22010KT 36/05 A3008 RMK A01 T03570052  RH  015%=      5-min Rain = 0
KVA1 131640Z 21007KT 36/05 A3008 RMK A01 T03560052  RH  015%=      5-min Rain = 0
KVA1 131641Z 18007KT 36/05 A3007 RMK A01 T03560053  RH  015%=      5-min Rain = 0
KVA1 131642Z 18008KT 36/05 A3007 RMK A01 T03580052  RH  015%=      5-min Rain = 0
KVA1 131643Z 20009KT 36/05 A3007 RMK A01 T03590052  RH  015%=      5-min Rain = 0
KVA1 131644Z 20009KT 36/05 A3007 RMK A01 T03610052  RH  015%=      5-min Rain = 0
KVA1 131645Z 20007KT 36/05 A3007 RMK A01 T03620053  RH  015%=      5-min Rain = 0
KVA1 131646Z 19009KT 37/05 A3007 RMK A01 T03650052  RH  014%=      5-min Rain = 0
KVA1 131647Z 19009KT 36/05 A3007 RMK A01 T03630052  RH  015%=      5-min Rain = 0
KVA1 131648Z 19006KT 36/05 A3007 RMK A01 T03630051  RH  015%=      5-min Rain = 0
KVA1 131649Z 19009KT 36/05 A3007 RMK A01 T03620050  RH  014%=      5-min Rain = 0
KVA1 131650Z 19012KT 36/05 A3007 RMK A01 T03610052  RH  015%=      5-min Rain = 0
KVA1 131651Z 21011KT 37/05 A3007 RMK A01 T03660052  RH  014%=      5-min Rain = 0
KVA1 131652Z 22009KT 37/05 A3007 RMK A01 T03670050  RH  014%=      5-min Rain = 0
KVA1 131653Z 22006KT 37/05 A3007 RMK A01 T03650047  RH  014%=      5-min Rain = 0
KVA1 131654Z 22006KT 36/05 A3007 RMK A01 T03630049  RH  014%=      5-min Rain = 0
KVA1 131655Z 23009KT 37/05 A3007 RMK A01 T03650050  RH  014%=      5-min Rain = 0
KVA1 131656Z 22009KT 37/05 A3007 RMK A01 T03680052  RH  014%=      5-min Rain = 0
KVA1 131657Z 22009KT 37/05 A3007 RMK A01 T03720052  RH  014%=      5-min Rain = 0
KVA1 131658Z 22007KT 37/05 A3007 RMK A01 T03660047  RH  014%=      5-min Rain = 0
KVA1 131659Z 21005KT 36/05 A3007 RMK A01 T03610046  RH  014%=      5-min Rain = 0
KVA1 131700Z 19009KT 36/05 A3007 RMK A01 T03620049  RH  014%=      5-min Rain = 0
KVA1 131701Z 21008KT 37/05 A3007 RMK A01 T03650049  RH  014%=      5-min Rain = 0
KVA1 131702Z 19006KT 37/05 A3007 RMK A01 T03660048  RH  014%=      5-min Rain = 0
KVA1 131703Z 20006KT 37/05 A3007 RMK A01 T03680050  RH  014%=      5-min Rain = 0
KVA1 131704Z 22007KT 37/05 A3007 RMK A01 T03690049  RH  014%=      5-min Rain = 0
KVA1 131705Z 20010KT 37/05 A3007 RMK A01 T03700050  RH  014%=      5-min Rain = 0
KVA1 131706Z 20011KT 37/05 A3007 RMK A01 T03720047  RH  013%=      5-min Rain = 0
KVA1 131707Z 22007KT 37/04 A3007 RMK A01 T03690043  RH  013%=      5-min Rain = 0
KVA1 131708Z 19008KT 37/04 A3007 RMK A01 T03670044  RH  014%=      5-min Rain = 0
KVA1 131709Z 19007KT 37/05 A3007 RMK A01 T03650045  RH  014%=      5-min Rain = 0
KVA1 131710Z 22007G12KT 37/05 A3007 RMK A01 T03670048  RH  014%=      5-min Rain = 0
KVA1 131711Z 21007KT 37/05 A3007 RMK A01 T03720047  RH  014%=      5-min Rain = 0
KVA1 131712Z 21010G15KT 37/05 A3007 RMK A01 T03720045  RH  013%=      5-min Rain = 0
KVA1 131713Z 19008KT 37/05 A3007 RMK A01 T03700045  RH  013%=      5-min Rain = 0
KVA1 131714Z 20008KT 37/04 A3007 RMK A01 T03710043  RH  013%=      5-min Rain = 0
KVA1 131715Z 18007KT 37/04 A3007 RMK A01 T03720043  RH  013%=      5-min Rain = 0
KVA1 131716Z 18007KT 37/04 A3007 RMK A01 T03710041  RH  013%=      5-min Rain = 0
KVA1 131717Z 19008G13KT 37/05 A3007 RMK A01 T03720046  RH  013%=      5-min Rain = 0
KVA1 131718Z 22009KT 37/05 A3007 RMK A01 T03740046  RH  013%=      5-min Rain = 0
KVA1 131719Z 23005KT 37/04 A3007 RMK A01 T03740043  RH  013%=      5-min Rain = 0
KVA1 131720Z 21006KT 37/05 A3007 RMK A01 T03730045  RH  013%=      5-min Rain = 0
KVA1 131721Z 20009KT 38/05 A3007 RMK A01 T03750045  RH  013%=      5-min Rain = 0
KVA1 131722Z 19004KT 38/04 A3007 RMK A01 T03750043  RH  013%=      5-min Rain = 0
KVA1 131723Z 17004KT 38/04 A3007 RMK A01 T03750044  RH  013%=      5-min Rain = 0
KVA1 131724Z 18007KT 38/04 A3007 RMK A01 T03750043  RH  013%=      5-min Rain = 0
KVA1 131725Z 18009KT 37/04 A3007 RMK A01 T03740043  RH  013%=      5-min Rain = 0
KVA1 131726Z 20010KT 38/04 A3007 RMK A01 T03750041  RH  013%=      5-min Rain = 0
KVA1 131727Z 21008KT 38/04 A3007 RMK A01 T03770038  RH  012%=      5-min Rain = 0
KVA1 131728Z 19007KT 38/04 A3007 RMK A01 T03770037  RH  012%=      5-min Rain = 0
KVA1 131729Z 19007KT 37/04 A3006 RMK A01 T03740037  RH  012%=      5-min Rain = 0
KVA1 131730Z 16007KT 37/04 A3006 RMK A01 T03730038  RH  013%=      5-min Rain = 0
KVA1 131731Z 18007KT 37/04 A3006 RMK A01 T03730036  RH  012%=      5-min Rain = 0
KVA1 131732Z 19006G13KT 37/04 A3006 RMK A01 T03720038  RH  013%=      5-min Rain = 0
KVA1 131733Z 21011KT 37/03 A3006 RMK A01 T03740034  RH  012%=      5-min Rain = 0
KVA1 131734Z 23009KT 38/03 A3006 RMK A01 T03780034  RH  012%=      5-min Rain = 0
KVA1 131735Z 21007KT 38/03 A3006 RMK A01 T03800033  RH  012%=      5-min Rain = 0
KVA1 131736Z 19007KT 38/03 A3006 RMK A01 T03790033  RH  012%=      5-min Rain = 0
KVA1 131737Z 19008KT 38/03 A3006 RMK A01 T03790032  RH  012%=      5-min Rain = 0
KVA1 131738Z 20007KT 38/03 A3006 RMK A01 T03760029  RH  012%=      5-min Rain = 0
KVA1 131739Z 18005KT 37/03 A3006 RMK A01 T03730031  RH  012%=      5-min Rain = 0
KVA1 131740Z 21007KT 38/03 A3006 RMK A01 T03770032  RH  012%=      5-min Rain = 0
KVA1 131741Z 23006KT 38/03 A3006 RMK A01 T03790029  RH  011%=      5-min Rain = 0
KVA1 131742Z 20004KT 38/03 A3006 RMK A01 T03780027  RH  011%=      5-min Rain = 0
KVA1 131743Z 19004KT 38/03 A3006 RMK A01 T03760031  RH  012%=      5-min Rain = 0
KVA1 131744Z 19003KT 38/03 A3006 RMK A01 T03800031  RH  012%=      5-min Rain = 0
KVA1 131745Z 20008KT 38/03 A3006 RMK A01 T03800031  RH  011%=      5-min Rain = 0
KVA1 131746Z 20011KT 38/03 A3006 RMK A01 T03810030  RH  011%=      5-min Rain = 0
KVA1 131747Z 19010KT 38/03 A3006 RMK A01 T03840030  RH  011%=      5-min Rain = 0
KVA1 131748Z 19006G12KT 38/03 A3006 RMK A01 T03830028  RH  011%=      5-min Rain = 0
KVA1 131749Z 18011KT 38/03 A3006 RMK A01 T03810026  RH  011%=      5-min Rain = 0
KVA1 131750Z 21010KT 38/03 A3006 RMK A01 T03800027  RH  011%=      5-min Rain = 0
KVA1 131751Z 20010KT 38/03 A3006 RMK A01 T03810026  RH  011%=      5-min Rain = 0
KVA1 131752Z 18009G14KT 38/03 A3006 RMK A01 T03840029  RH  011%=      5-min Rain = 0
KVA1 131753Z 18011KT 39/03 A3005 RMK A01 T03870030  RH  011%=      5-min Rain = 0
KVA1 131754Z 16007KT 39/03 A3006 RMK A01 T03880027  RH  011%=      5-min Rain = 0
KVA1 131755Z 17004KT 39/03 A3005 RMK A01 T03860026  RH  011%=      5-min Rain = 0
KVA1 131756Z 20004G9KT 39/03 A3005 RMK A01 T03850026  RH  011%=      5-min Rain = 0
KVA1 131757Z 21010KT 39/03 A3005 RMK A01 T03860026  RH  011%=      5-min Rain = 0
KVA1 131758Z 20009G14KT 39/03 A3005 RMK A01 T03860025  RH  011%=      5-min Rain = 0
KVA1 131759Z 19007KT 39/02 A3005 RMK A01 T03850024  RH  011%=      5-min Rain = 0
KVA1 131800Z 18003KT 38/02 A3005 RMK A01 T03830022  RH  011%=      5-min Rain = 0
KVA1 131801Z 19006KT 38/03 A3005 RMK A01 T03820025  RH  011%=      5-min Rain = 0
KVA1 131802Z 19004KT 39/02 A3005 RMK A01 T03850023  RH  011%=      5-min Rain = 0
KVA1 131803Z 19008G14KT 38/02 A3005 RMK A01 T03840024  RH  011%=      5-min Rain = 0
KVA1 131804Z 20011KT 39/02 A3005 RMK A01 T03860024  RH  011%=      5-min Rain = 0
KVA1 131805Z 18008KT 39/02 A3005 RMK A01 T03850021  RH  010%=      5-min Rain = 0
KVA1 131806Z 16006KT 38/02 A3005 RMK A01 T03840022  RH  011%=      5-min Rain = 0
KVA1 131807Z 18004KT 38/02 A3005 RMK A01 T03840023  RH  011%=      5-min Rain = 0
KVA1 131808Z 22005KT 38/02 A3005 RMK A01 T03840021  RH  010%=      5-min Rain = 0
KVA1 131809Z 25006KT 38/02 A3005 RMK A01 T03840022  RH  011%=      5-min Rain = 0
KVA1 131810Z 26007KT 39/02 A3005 RMK A01 T03850022  RH  010%=      5-min Rain = 0
KVA1 131811Z 28005KT 39/02 A3005 RMK A01 T03850023  RH  011%=      5-min Rain = 0
KVA1 131812Z 27006KT 39/02 A3005 RMK A01 T03870022  RH  010%=      5-min Rain = 0
KVA1 131813Z 26003KT 39/02 A3005 RMK A01 T03850020  RH  010%=      5-min Rain = 0
KVA1 131814Z 28005KT 38/02 A3005 RMK A01 T03830020  RH  011%=      5-min Rain = 0
KVA1 131815Z 27005KT 38/02 A3005 RMK A01 T03830022  RH  011%=      5-min Rain = 0
KVA1 131816Z 23005KT 39/02 A3005 RMK A01 T03850020  RH  010%=      5-min Rain = 0
KVA1 131817Z 19009KT 39/02 A3005 RMK A01 T03870022  RH  010%=      5-min Rain = 0
KVA1 131818Z 19010KT 39/02 A3004 RMK A01 T03870022  RH  010%=      5-min Rain = 0
KVA1 131819Z 19009KT 39/02 A3005 RMK A01 T03880021  RH  010%=      5-min Rain = 0
KVA1 131820Z 16007KT 39/02 A3004 RMK A01 T03870021  RH  010%=      5-min Rain = 0
KVA1 131821Z 20005KT 39/02 A3004 RMK A01 T03850019  RH  010%=      5-min Rain = 0
KVA1 131822Z 22004KT 38/02 A3004 RMK A01 T03840019  RH  010%=      5-min Rain = 0
KVA1 131823Z 21008KT 38/02 A3004 RMK A01 T03840018  RH  010%=      5-min Rain = 0
KVA1 131824Z 20009KT 39/02 A3004 RMK A01 T03870021  RH  010%=      5-min Rain = 0
KVA1 131825Z 19008KT 39/02 A3004 RMK A01 T03890019  RH  010%=      5-min Rain = 0
KVA1 131826Z 20006KT 39/02 A3004 RMK A01 T03880020  RH  010%=      5-min Rain = 0
KVA1 131827Z 20008KT 39/02 A3004 RMK A01 T03880020  RH  010%=      5-min Rain = 0
KVA1 131828Z 19006KT 39/02 A3004 RMK A01 T03900020  RH  010%=      5-min Rain = 0
KVA1 131829Z 17003KT 39/02 A3004 RMK A01 T03920021  RH  010%=      5-min Rain = 0
KVA1 131830Z 16004KT 39/02 A3004 RMK A01 T03940021  RH  010%=      5-min Rain = 0
KVA1 131831Z 20008KT 40/02 A3004 RMK A01 T03960023  RH  010%=      5-min Rain = 0
KVA1 131832Z 19009KT 40/02 A3004 RMK A01 T03970018  RH  010%=      5-min Rain = 0
KVA1 131833Z 19010KT 39/02 A3004 RMK A01 T03940019  RH  010%=      5-min Rain = 0
KVA1 131834Z 19009KT 40/02 A3004 RMK A01 T03960021  RH  010%=      5-min Rain = 0
KVA1 131835Z 16006KT 40/02 A3004 RMK A01 T03980021  RH  010%=      5-min Rain = 0
KVA1 131836Z 17006KT 40/02 A3003 RMK A01 T03970017  RH  010%=      5-min Rain = 0
KVA1 131837Z 18009KT 39/02 A3003 RMK A01 T03940019  RH  010%=      5-min Rain = 0
KVA1 131838Z 18010KT 39/02 A3003 RMK A01 T03940018  RH  010%=      5-min Rain = 0
KVA1 131839Z 17009KT 40/02 A3003 RMK A01 T03960017  RH  010%=      5-min Rain = 0
KVA1 131840Z 17009KT 40/02 A3003 RMK A01 T03950016  RH  010%=      5-min Rain = 0
KVA1 131841Z 19010KT 39/02 A3003 RMK A01 T03940017  RH  010%=      5-min Rain = 0
KVA1 131842Z 19010KT 39/02 A3003 RMK A01 T03930017  RH  010%=      5-min Rain = 0
KVA1 131843Z 23007KT 39/02 A3003 RMK A01 T03930019  RH  010%=      5-min Rain = 0
KVA1 131844Z 24008KT 40/02 A3003 RMK A01 T03950017  RH  010%=      5-min Rain = 0
KVA1 131845Z 24008KT 40/02 A3003 RMK A01 T03950016  RH  010%=      5-min Rain = 0
KVA1 131846Z 25008KT 39/02 A3003 RMK A01 T03940017  RH  010%=      5-min Rain = 0
KVA1 131847Z 25006KT 39/02 A3003 RMK A01 T03940016  RH  010%=      5-min Rain = 0
KVA1 131848Z 20011KT 39/02 A3003 RMK A01 T03930017  RH  010%=      5-min Rain = 0
KVA1 131849Z 19009KT 39/02 A3003 RMK A01 T03930018  RH  010%=      5-min Rain = 0
KVA1 131850Z 20008KT 40/02 A3003 RMK A01 T03950019  RH  010%=      5-min Rain = 0
KVA1 131851Z 20004KT 39/02 A3003 RMK A01 T03940016  RH  010%=      5-min Rain = 0
KVA1 131852Z 19009KT 39/02 A3003 RMK A01 T03920017  RH  010%=      5-min Rain = 0
KVA1 131853Z 21011KT 39/02 A3003 RMK A01 T03940019  RH  010%=      5-min Rain = 0
KVA1 131854Z 21007KT 39/02 A3003 RMK A01 T03940017  RH  010%=      5-min Rain = 0
KVA1 131855Z 18010KT 39/02 A3003 RMK A01 T03920017  RH  010%=      5-min Rain = 0
KVA1 131856Z 18006KT 39/02 A3003 RMK A01 T03890016  RH  010%=      5-min Rain = 0
KVA1 131857Z 17005KT 39/02 A3003 RMK A01 T03860015  RH  010%=      5-min Rain = 0
KVA1 131858Z 15006KT 39/02 A3003 RMK A01 T03870016  RH  010%=      5-min Rain = 0
KVA1 131859Z 15006KT 39/02 A3003 RMK A01 T03880017  RH  010%=      5-min Rain = 0
KVA1 131900Z 17004KT 39/02 A3003 RMK A01 T03910019  RH  010%=      5-min Rain = 0
KVA1 131901Z 34001KT 40/02 A3003 RMK A01 T03950017  RH  010%=      5-min Rain = 0
KVA1 131902Z 16005KT 40/02 A3003 RMK A01 T03960018  RH  010%=      5-min Rain = 0
KVA1 131903Z 17009KT 40/02 A3003 RMK A01 T03980017  RH  010%=      5-min Rain = 0
KVA1 131904Z 17007KT 40/02 A3003 RMK A01 T03960016  RH  009%=      5-min Rain = 0
KVA1 131905Z 17005KT 39/02 A3003 RMK A01 T03940016  RH  010%=      5-min Rain = 0
KVA1 131906Z 19006KT 40/02 A3003 RMK A01 T03950018  RH  010%=      5-min Rain = 0
KVA1 131907Z 19006KT 40/02 A3003 RMK A01 T03960017  RH  010%=      5-min Rain = 0
KVA1 131908Z 24009KT 40/02 A3002 RMK A01 T03970017  RH  010%=      5-min Rain = 0
KVA1 131909Z 26008KT 40/02 A3003 RMK A01 T04010017  RH  009%=      5-min Rain = 0
KVA1 131910Z 25007KT 40/01 A3003 RMK A01 T03990014  RH  009%=      5-min Rain = 0
KVA1 131911Z 21009KT 40/02 A3002 RMK A01 T03980015  RH  009%=      5-min Rain = 0
KVA1 131912Z 21010KT 40/02 A3002 RMK A01 T04000018  RH  009%=      5-min Rain = 0
KVA1 131913Z 19006KT 40/01 A3002 RMK A01 T03990014  RH  009%=      5-min Rain = 0
KVA1 131914Z 22003KT 40/02 A3002 RMK A01 T03960015  RH  009%=      5-min Rain = 0
KVA1 131915Z 21009KT 40/02 A3002 RMK A01 T04010019  RH  009%=      5-min Rain = 0
KVA1 131916Z 20008KT 41/02 A3002 RMK A01 T04070017  RH  009%=      5-min Rain = 0
KVA1 131917Z 18009KT 41/02 A3002 RMK A01 T04050018  RH  009%=      5-min Rain = 0
KVA1 131918Z 19008KT 40/02 A3002 RMK A01 T04020016  RH  009%=      5-min Rain = 0
KVA1 131919Z 19002KT 40/01 A3002 RMK A01 T03980013  RH  009%=      5-min Rain = 0
KVA1 131920Z 16007G18KT 39/01 A3002 RMK A01 T03940014  RH  009%=      5-min Rain = 0
KVA1 131921Z 21013G21KT 40/02 A3002 RMK A01 T03960017  RH  010%=      5-min Rain = 0
KVA1 131922Z 21014KT 40/02 A3002 RMK A01 T04010017  RH  009%=      5-min Rain = 0
KVA1 131923Z 20010G15KT 40/02 A3002 RMK A01 T04040017  RH  009%=      5-min Rain = 0
KVA1 131924Z 21011KT 41/02 A3002 RMK A01 T04060018  RH  009%=      5-min Rain = 0
KVA1 131925Z 24011KT 41/02 A3002 RMK A01 T04080017  RH  009%=      5-min Rain = 0
KVA1 131926Z 26010KT 41/02 A3002 RMK A01 T04100016  RH  009%=      5-min Rain = 0
KVA1 131927Z 24009KT 41/02 A3002 RMK A01 T04080015  RH  009%=      5-min Rain = 0
KVA1 131928Z 24009KT 41/01 A3002 RMK A01 T04050013  RH  009%=      5-min Rain = 0
KVA1 131929Z 23008KT 40/01 A3002 RMK A01 T04000013  RH  009%=      5-min Rain = 0
KVA1 131930Z 22005KT 40/02 A3002 RMK A01 T04020015  RH  009%=      5-min Rain = 0
KVA1 131931Z 24004KT 40/02 A3002 RMK A01 T04030015  RH  009%=      5-min Rain = 0
KVA1 131932Z 27009KT 41/02 A3002 RMK A01 T04050016  RH  009%=      5-min Rain = 0
KVA1 131933Z 28009KT 41/02 A3002 RMK A01 T04050015  RH  009%=      5-min Rain = 0
KVA1 131934Z 29007KT 40/01 A3002 RMK A01 T04030014  RH  009%=      5-min Rain = 0
KVA1 131935Z 27003KT 40/01 A3002 RMK A01 T03990012  RH  009%=      5-min Rain = 0
KVA1 131936Z 17006KT 40/01 A3002 RMK A01 T03980014  RH  009%=      5-min Rain = 0
KVA1 131937Z 16009KT 40/01 A3002 RMK A01 T03990014  RH  009%=      5-min Rain = 0
KVA1 131938Z 17012KT 40/01 A3001 RMK A01 T04000014  RH  009%=      5-min Rain = 0
KVA1 131939Z 16009KT 40/01 A3001 RMK A01 T04010014  RH  009%=      5-min Rain = 0
KVA1 131940Z 16007KT 40/02 A3001 RMK A01 T04010015  RH  009%=      5-min Rain = 0
KVA1 131941Z 19005KT 40/02 A3001 RMK A01 T04020017  RH  009%=      5-min Rain = 0
KVA1 131942Z 21008KT 41/02 A3001 RMK A01 T04050016  RH  009%=      5-min Rain = 0
KVA1 131943Z 22007KT 41/02 A3001 RMK A01 T04050015  RH  009%=      5-min Rain = 0
KVA1 131944Z 24009KT 41/02 A3001 RMK A01 T04070016  RH  009%=      5-min Rain = 0
KVA1 131945Z 22007KT 41/01 A3001 RMK A01 T04060014  RH  009%=      5-min Rain = 0
KVA1 131946Z 19005KT 41/02 A3002 RMK A01 T04060016  RH  009%=      5-min Rain = 0
KVA1 131947Z 17003KT 41/02 A3001 RMK A01 T04060016  RH  009%=      5-min Rain = 0
KVA1 131948Z 13005KT 41/02 A3001 RMK A01 T04050016  RH  009%=      5-min Rain = 0
KVA1 131949Z 15008G13KT 41/02 A3001 RMK A01 T04050016  RH  009%=      5-min Rain = 0
KVA1 131950Z 17008KT 41/02 A3001 RMK A01 T04050017  RH  009%=      5-min Rain = 0
KVA1 131951Z 19006KT 40/01 A3001 RMK A01 T04030014  RH  009%=      5-min Rain = 0
KVA1 131952Z 17008KT 40/02 A3001 RMK A01 T03990016  RH  009%=      5-min Rain = 0
KVA1 131953Z 18008KT 40/02 A3001 RMK A01 T04010015  RH  009%=      5-min Rain = 0
KVA1 131954Z 15009KT 40/02 A3001 RMK A01 T04000015  RH  009%=      5-min Rain = 0
KVA1 131955Z 15009KT 40/02 A3001 RMK A01 T04000016  RH  009%=      5-min Rain = 0
KVA1 131956Z 15007KT 41/02 A3001 RMK A01 T04050016  RH  009%=      5-min Rain = 0
KVA1 131957Z 14009KT 40/02 A3001 RMK A01 T04030015  RH  009%=      5-min Rain = 0
KVA1 131958Z 14011KT 40/02 A3001 RMK A01 T04040016  RH  009%=      5-min Rain = 0
KVA1 131959Z 16009KT 41/01 A3001 RMK A01 T04050014  RH  009%=      5-min Rain = 0
KVA1 132000Z 16008KT 40/02 A3001 RMK A01 T04030015  RH  009%=      5-min Rain = 0
KVA1 132001Z 17005KT 41/02 A3001 RMK A01 T04050017  RH  009%=      5-min Rain = 0
KVA1 132002Z 22004KT 41/02 A3001 RMK A01 T04080017  RH  009%=      5-min Rain = 0
KVA1 132003Z 24006KT 41/02 A3001 RMK A01 T04110016  RH  009%=      5-min Rain = 0
KVA1 132004Z 25008KT 41/02 A3001 RMK A01 T04130016  RH  009%=      5-min Rain = 0
KVA1 132005Z 25006KT 41/01 A3001 RMK A01 T04110013  RH  009%=      5-min Rain = 0
KVA1 132006Z 25008KT 41/01 A3001 RMK A01 T04100014  RH  009%=      5-min Rain = 0
KVA1 132007Z 30006KT 41/01 A30 RMK A01 T04080013  RH  009%=      5-min Rain = 0
KVA1 132008Z 28005KT 41/01 A30 RMK A01 T04060014  RH  009%=      5-min Rain = 0
KVA1 132009Z 18012G25KT 41/01 A30 RMK A01 T04060014  RH  009%=      5-min Rain = 0
KVA1 132010Z 19010KT 41/02 A30 RMK A01 T04100016  RH  009%=      5-min Rain = 0
KVA1 132011Z 19010KT 41/01 A30 RMK A01 T04100014  RH  009%=      5-min Rain = 0
KVA1 132012Z 16011KT 41/01 A30 RMK A01 T04090014  RH  009%=      5-min Rain = 0
KVA1 132013Z 15011KT 41/02 A30 RMK A01 T04120016  RH  009%=      5-min Rain = 0
KVA1 132014Z 15011KT 42/02 A30 RMK A01 T04170017  RH  009%=      5-min Rain = 0
KVA1 132015Z 15008KT 42/02 A30 RMK A01 T04180016  RH  008%=      5-min Rain = 0
KVA1 132016Z 18007KT 42/02 A30 RMK A01 T04160016  RH  009%=      5-min Rain = 0
KVA1 132017Z 21006KT 42/02 A30 RMK A01 T04160015  RH  009%=      5-min Rain = 0
KVA1 132018Z 20008KT 41/02 A30 RMK A01 T04130016  RH  009%=      5-min Rain = 0
KVA1 132019Z 20008KT 41/02 A30 RMK A01 T04140017  RH  009%=      5-min Rain = 0
KVA1 132020Z 21006KT 41/02 A30 RMK A01 T04140015  RH  009%=      5-min Rain = 0
KVA1 132021Z 20005KT 41/02 A30 RMK A01 T04120016  RH  009%=      5-min Rain = 0
KVA1 132022Z 19006KT 41/02 A30 RMK A01 T04140018  RH  009%=      5-min Rain = 0
KVA1 132023Z 19005KT 42/02 A30 RMK A01 T04170017  RH  009%=      5-min Rain = 0
KVA1 132024Z 18008KT 42/02 A30 RMK A01 T04160017  RH  009%=      5-min Rain = 0
KVA1 132025Z 17010KT 41/02 A30 RMK A01 T04130015  RH  009%=      5-min Rain = 0
KVA1 132026Z 18007KT 41/02 A30 RMK A01 T04090015  RH  009%=      5-min Rain = 0
KVA1 132027Z 21010KT 41/02 A30 RMK A01 T04090016  RH  009%=      5-min Rain = 0
KVA1 132028Z 21008KT 41/01 A30 RMK A01 T04060012  RH  009%=      5-min Rain = 0
KVA1 132029Z 23006G11KT 40/01 A30 RMK A01 T04010010  RH  009%=      5-min Rain = 0
KVA1 132030Z 24008KT 40/01 A30 RMK A01 T04020014  RH  009%=      5-min Rain = 0
KVA1 132031Z 24007KT 41/01 A30 RMK A01 T04050013  RH  009%=      5-min Rain = 0
KVA1 132032Z 22003KT 40/01 A30 RMK A01 T04040013  RH  009%=      5-min Rain = 0
KVA1 132033Z 18002KT 41/02 A30 RMK A01 T04050015  RH  009%=      5-min Rain = 0
KVA1 132034Z 19003KT 41/01 A30 RMK A01 T04070014  RH  009%=      5-min Rain = 0
KVA1 132035Z 18010KT 41/02 A30 RMK A01 T04060016  RH  009%=      5-min Rain = 0
KVA1 132036Z 20008KT 41/02 A30 RMK A01 T04110018  RH  009%=      5-min Rain = 0
KVA1 132037Z 20011KT 41/02 A30 RMK A01 T04140018  RH  009%=      5-min Rain = 0
KVA1 132038Z 21012KT 41/02 A30 RMK A01 T04140016  RH  009%=      5-min Rain = 0
KVA1 132039Z 20012KT 41/02 A30 RMK A01 T04130015  RH  009%=      5-min Rain = 0
KVA1 132040Z 21010KT 41/01 A30 RMK A01 T04110014  RH  009%=      5-min Rain = 0
KVA1 132041Z 22010KT 41/01 A30 RMK A01 T04070013  RH  009%=      5-min Rain = 0
KVA1 132042Z 22008KT 41/01 A30 RMK A01 T04050013  RH  009%=      5-min Rain = 0
KVA1 132043Z 22004KT 40/01 A30 RMK A01 T04040011  RH  009%=      5-min Rain = 0
KVA1 132044Z 16004KT 40/01 A30 RMK A01 T04020013  RH  009%=      5-min Rain = 0
KVA1 132045Z 20007KT 40/01 A2999 RMK A01 T04030014  RH  009%=      5-min Rain = 0
KVA1 132046Z 16011KT 41/02 A30 RMK A01 T04050015  RH  009%=      5-min Rain = 0
KVA1 132047Z 15007KT 41/02 A30 RMK A01 T04120019  RH  009%=      5-min Rain = 0
KVA1 132048Z 16005KT 42/02 A30 RMK A01 T04160017  RH  009%=      5-min Rain = 0
KVA1 132049Z 10003KT 41/01 A2999 RMK A01 T04110013  RH  009%=      5-min Rain = 0
KVA1 132050Z 09001KT 41/02 A2999 RMK A01 T04060017  RH  009%=      5-min Rain = 0
KVA1 132051Z 25000KT 40/02 A2999 RMK A01 T04040015  RH  009%=      5-min Rain = 0
KVA1 132052Z 21002KT 41/01 A2999 RMK A01 T04050014  RH  009%=      5-min Rain = 0
KVA1 132053Z 23007KT 41/01 A2999 RMK A01 T04060014  RH  009%=      5-min Rain = 0
KVA1 132054Z 24009KT 41/02 A2999 RMK A01 T04080015  RH  009%=      5-min Rain = 0
KVA1 132055Z 25007KT 41/02 A2999 RMK A01 T04090016  RH  009%=      5-min Rain = 0
KVA1 132056Z 24006KT 41/02 A2999 RMK A01 T04110016  RH  009%=      5-min Rain = 0
KVA1 132057Z 24005KT 41/02 A2999 RMK A01 T04110016  RH  009%=      5-min Rain = 0
KVA1 132058Z 25002KT 41/01 A2999 RMK A01 T04080014  RH  009%=      5-min Rain = 0
KVA1 132059Z 22002KT 41/02 A2999 RMK A01 T04080015  RH  009%=      5-min Rain = 0
KVA1 132100Z 26004KT 41/02 A2999 RMK A01 T04090015  RH  009%=      5-min Rain = 0
KVA1 132101Z 23004KT 41/02 A2999 RMK A01 T04110015  RH  009%=      5-min Rain = 0
KVA1 132102Z 18004KT 41/02 A2999 RMK A01 T04140018  RH  009%=      5-min Rain = 0
KVA1 132103Z 18005KT 41/02 A2999 RMK A01 T04130015  RH  009%=      5-min Rain = 0
KVA1 132104Z 17008KT 41/02 A2999 RMK A01 T04090018  RH  009%=      5-min Rain = 0
KVA1 132105Z 18007KT 41/02 A2999 RMK A01 T04080017  RH  009%=      5-min Rain = 0
KVA1 132106Z 17007KT 41/02 A2999 RMK A01 T04090018  RH  009%=      5-min Rain = 0
KVA1 132107Z 13008KT 41/02 A2999 RMK A01 T04080018  RH  009%=      5-min Rain = 0
KVA1 132108Z 14008G13KT 41/02 A2998 RMK A01 T04080019  RH  009%=      5-min Rain = 0
KVA1 132109Z 15010KT 41/02 A2998 RMK A01 T04090018  RH  009%=      5-min Rain = 0
KVA1 132110Z 16011G16KT 41/02 A2998 RMK A01 T04090018  RH  009%=      5-min Rain = 0
KVA1 132111Z 16009KT 41/02 A2998 RMK A01 T04090018  RH  009%=      5-min Rain = 0
KVA1 132112Z 14010KT 41/02 A2998 RMK A01 T04090019  RH  009%=      5-min Rain = 0
KVA1 132113Z 13009KT 41/02 A2998 RMK A01 T04100019  RH  009%=      5-min Rain = 0
KVA1 132114Z 14009KT 41/02 A2998 RMK A01 T04100021  RH  009%=      5-min Rain = 0
KVA1 132115Z 15009KT 41/02 A2998 RMK A01 T04110021  RH  009%=      5-min Rain = 0
KVA1 132116Z 14007KT 41/02 A2998 RMK A01 T04120021  RH  009%=      5-min Rain = 0
KVA1 132117Z 15009KT 41/02 A2998 RMK A01 T04120022  RH  009%=      5-min Rain = 0
KVA1 132118Z 15008KT 41/02 A2998 RMK A01 T04120020  RH  009%=      5-min Rain = 0
KVA1 132119Z 15010KT 41/02 A2998 RMK A01 T04130020  RH  009%=      5-min Rain = 0
KVA1 132120Z 14007KT 41/02 A2998 RMK A01 T04120018  RH  009%=      5-min Rain = 0
KVA1 132121Z 14007KT 41/02 A2998 RMK A01 T04100020  RH  009%=      5-min Rain = 0
KVA1 132122Z 17005KT 41/02 A2998 RMK A01 T04090016  RH  009%=      5-min Rain = 0
KVA1 132123Z 19006KT 41/02 A2998 RMK A01 T04060017  RH  009%=      5-min Rain = 0
KVA1 132124Z 19006KT 41/02 A2998 RMK A01 T04060017  RH  009%=      5-min Rain = 0
KVA1 132125Z 18005KT 41/02 A2998 RMK A01 T04060016  RH  009%=      5-min Rain = 0
KVA1 132126Z 19006KT 41/02 A2998 RMK A01 T04070020  RH  009%=      5-min Rain = 0
KVA1 132127Z 19007KT 41/02 A2998 RMK A01 T04100017  RH  009%=      5-min Rain = 0
KVA1 132128Z 20004KT 41/02 A2998 RMK A01 T04090017  RH  009%=      5-min Rain = 0
KVA1 132129Z 21005KT 41/02 A2998 RMK A01 T04080015  RH  009%=      5-min Rain = 0
KVA1 132130Z 18004KT 41/02 A2998 RMK A01 T04070016  RH  009%=      5-min Rain = 0
KVA1 132131Z 27005KT 41/02 A2998 RMK A01 T04080017  RH  009%=      5-min Rain = 0
KVA1 132132Z 21006KT 41/02 A2998 RMK A01 T04070015  RH  009%=      5-min Rain = 0
KVA1 132133Z 21007KT 41/02 A2997 RMK A01 T04070016  RH  009%=      5-min Rain = 0
KVA1 132134Z 23007KT 41/02 A2997 RMK A01 T04100018  RH  009%=      5-min Rain = 0
KVA1 132135Z 23007KT 41/02 A2997 RMK A01 T04130018  RH  009%=      5-min Rain = 0
KVA1 132136Z 23005KT 42/02 A2997 RMK A01 T04150017  RH  009%=      5-min Rain = 0
KVA1 132137Z 22003KT 41/02 A2997 RMK A01 T04120015  RH  009%=      5-min Rain = 0
KVA1 132138Z 21003KT 41/02 A2997 RMK A01 T04100016  RH  009%=      5-min Rain = 0
KVA1 132139Z 22007KT 41/01 A2997 RMK A01 T04080014  RH  009%=      5-min Rain = 0
KVA1 132140Z 22004KT 41/01 A2997 RMK A01 T04060014  RH  009%=      5-min Rain = 0
KVA1 132141Z 20006KT 41/02 A2997 RMK A01 T04050016  RH  009%=      5-min Rain = 0
KVA1 132142Z 22007KT 41/02 A2997 RMK A01 T04080017  RH  009%=      5-min Rain = 0
KVA1 132143Z 20008KT 41/02 A2997 RMK A01 T04090019  RH  009%=      5-min Rain = 0
KVA1 132144Z 18010KT 41/02 A2997 RMK A01 T04120019  RH  009%=      5-min Rain = 0
KVA1 132145Z 17009KT 41/02 A2997 RMK A01 T04090018  RH  009%=      5-min Rain = 0
KVA1 132146Z 18010KT 41/02 A2997 RMK A01 T04090019  RH  009%=      5-min Rain = 0
KVA1 132147Z 17005KT 41/02 A2997 RMK A01 T04090018  RH  009%=      5-min Rain = 0
KVA1 132148Z 18007KT 41/02 A2997 RMK A01 T04070018  RH  009%=      5-min Rain = 0
KVA1 132149Z 18005KT 40/02 A2997 RMK A01 T04040016  RH  009%=      5-min Rain = 0
KVA1 132150Z 19004KT 40/02 A2997 RMK A01 T04040017  RH  009%=      5-min Rain = 0
KVA1 132151Z 15006KT 40/02 A2997 RMK A01 T04040018  RH  009%=      5-min Rain = 0
KVA1 132152Z 20007G12KT 41/02 A2997 RMK A01 T04070018  RH  009%=      5-min Rain = 0
KVA1 132153Z 19011KT 41/02 A2996 RMK A01 T04120020  RH  009%=      5-min Rain = 0
KVA1 132154Z 20011KT 42/02 A2996 RMK A01 T04160019  RH  009%=      5-min Rain = 0
KVA1 132155Z 22010G17KT 42/02 A2996 RMK A01 T04160019  RH  009%=      5-min Rain = 0
KVA1 132156Z 22010KT 41/02 A2997 RMK A01 T04140016  RH  009%=      5-min Rain = 0
KVA1 132157Z 20009KT 41/02 A2997 RMK A01 T04110018  RH  009%=      5-min Rain = 0
KVA1 132158Z 19006KT 41/02 A2997 RMK A01 T04100017  RH  009%=      5-min Rain = 0
KVA1 132159Z 18011KT 41/02 A2997 RMK A01 T04080017  RH  009%=      5-min Rain = 0
KVA1 132200Z 18007KT 41/02 A2997 RMK A01 T04070017  RH  009%=      5-min Rain = 0
KVA1 132201Z 18006KT 41/02 A2997 RMK A01 T04070018  RH  009%=      5-min Rain = 0
KVA1 132202Z 18007KT 41/02 A2997 RMK A01 T04080018  RH  009%=      5-min Rain = 0
KVA1 132203Z 20005KT 41/02 A2996 RMK A01 T04070016  RH  009%=      5-min Rain = 0
KVA1 132204Z 19005KT 41/02 A2996 RMK A01 T04050017  RH  009%=      5-min Rain = 0
KVA1 132205Z 19009G17KT 41/02 A2996 RMK A01 T04060018  RH  009%=      5-min Rain = 0
KVA1 132206Z 15010KT 41/02 A2996 RMK A01 T04110020  RH  009%=      5-min Rain = 0
KVA1 132207Z 14011KT 41/02 A2996 RMK A01 T04130019  RH  009%=      5-min Rain = 0
KVA1 132208Z 15009KT 42/02 A2996 RMK A01 T04150019  RH  009%=      5-min Rain = 0
KVA1 132209Z 17009KT 42/02 A2996 RMK A01 T04150019  RH  009%=      5-min Rain = 0
KVA1 132210Z 15008KT 41/02 A2996 RMK A01 T04120017  RH  009%=      5-min Rain = 0
KVA1 132211Z 13006KT 41/02 A2996 RMK A01 T04090017  RH  009%=      5-min Rain = 0
KVA1 132212Z 15007KT 41/02 A2996 RMK A01 T04080019  RH  009%=      5-min Rain = 0
KVA1 132213Z 15005KT 41/02 A2996 RMK A01 T04100019  RH  009%=      5-min Rain = 0
KVA1 132214Z 14004KT 41/02 A2996 RMK A01 T04110018  RH  009%=      5-min Rain = 0
KVA1 132215Z 16008G13KT 41/02 A2996 RMK A01 T04110019  RH  009%=      5-min Rain = 0
KVA1 132216Z 18009KT 41/02 A2996 RMK A01 T04130020  RH  009%=      5-min Rain = 0
KVA1 132217Z 18009KT 41/02 A2996 RMK A01 T04140019  RH  009%=      5-min Rain = 0
KVA1 132218Z 16011KT 41/02 A2996 RMK A01 T04120018  RH  009%=      5-min Rain = 0
KVA1 132219Z 17013KT 41/02 A2996 RMK A01 T04110019  RH  009%=      5-min Rain = 0
KVA1 132220Z 19009KT 41/02 A2996 RMK A01 T04100019  RH  009%=      5-min Rain = 0
KVA1 132221Z 18008KT 41/02 A2996 RMK A01 T04090019  RH  009%=      5-min Rain = 0
KVA1 132222Z 14010KT 41/02 A2996 RMK A01 T04110021  RH  009%=      5-min Rain = 0
KVA1 132223Z 14009KT 41/02 A2996 RMK A01 T04120021  RH  009%=      5-min Rain = 0
KVA1 132224Z 15010KT 41/02 A2996 RMK A01 T04120021  RH  009%=      5-min Rain = 0
KVA1 132225Z 15008KT 41/02 A2996 RMK A01 T04120020  RH  009%=      5-min Rain = 0
KVA1 132226Z 14011KT 41/02 A2996 RMK A01 T04120021  RH  009%=      5-min Rain = 0
KVA1 132227Z 16009KT 41/02 A2996 RMK A01 T04120020  RH  009%=      5-min Rain = 0
KVA1 132228Z 15010KT 41/02 A2996 RMK A01 T04120020  RH  009%=      5-min Rain = 0
KVA1 132229Z 15010KT 41/02 A2996 RMK A01 T04110021  RH  009%=      5-min Rain = 0
KVA1 132230Z 16010KT 41/02 A2995 RMK A01 T04120021  RH  009%=      5-min Rain = 0
KVA1 132231Z 14010KT 41/02 A2995 RMK A01 T04120022  RH  009%=      5-min Rain = 0
KVA1 132232Z 12008KT 41/02 A2995 RMK A01 T04130022  RH  009%=      5-min Rain = 0
KVA1 132233Z 15009KT 41/02 A2995 RMK A01 T04110022  RH  009%=      5-min Rain = 0
KVA1 132234Z 16009KT 41/02 A2995 RMK A01 T04110021  RH  009%=      5-min Rain = 0
KVA1 132235Z 16009KT 41/02 A2995 RMK A01 T04110020  RH  009%=      5-min Rain = 0
KVA1 132236Z 16008KT 41/02 A2995 RMK A01 T04120021  RH  009%=      5-min Rain = 0
KVA1 132237Z 13007KT 41/02 A2995 RMK A01 T04120021  RH  009%=      5-min Rain = 0
KVA1 132238Z 14007KT 41/02 A2995 RMK A01 T04120021  RH  009%=      5-min Rain = 0
KVA1 132239Z 13005KT 41/02 A2995 RMK A01 T04100020  RH  009%=      5-min Rain = 0
KVA1 132240Z 12005KT 41/02 A2995 RMK A01 T04070020  RH  009%=      5-min Rain = 0
KVA1 132241Z 14000KT 41/02 A2995 RMK A01 T04060020  RH  009%=      5-min Rain = 0
KVA1 132242Z 34000KT 41/02 A2995 RMK A01 T04070020  RH  009%=      5-min Rain = 0
KVA1 132243Z 14002KT 41/02 A2995 RMK A01 T04090020  RH  009%=      5-min Rain = 0
KVA1 132244Z 14005G11KT 41/02 A2995 RMK A01 T04090021  RH  009%=      5-min Rain = 0
KVA1 132245Z 14010KT 41/02 A2995 RMK A01 T04100022  RH  009%=      5-min Rain = 0
KVA1 132246Z 14011KT 41/02 A2995 RMK A01 T04110021  RH  009%=      5-min Rain = 0
KVA1 132247Z 14010KT 41/02 A2995 RMK A01 T04120021  RH  009%=      5-min Rain = 0
KVA1 132248Z 13009KT 41/02 A2995 RMK A01 T04110021  RH  009%=      5-min Rain = 0
KVA1 132249Z 11008KT 41/02 A2995 RMK A01 T04100021  RH  009%=      5-min Rain = 0
KVA1 132250Z 11007KT 41/02 A2995 RMK A01 T04080021  RH  009%=      5-min Rain = 0
KVA1 132251Z 10006KT 41/03 A2995 RMK A01 T04080026  RH  010%=      5-min Rain = 0
KVA1 132252Z 12003KT 41/02 A2995 RMK A01 T04090022  RH  009%=      5-min Rain = 0
KVA1 132253Z 15003KT 41/02 A2994 RMK A01 T04090020  RH  009%=      5-min Rain = 0
KVA1 132254Z 18005KT 41/02 A2994 RMK A01 T04080020  RH  009%=      5-min Rain = 0
KVA1 132255Z 17005KT 41/02 A2994 RMK A01 T04050021  RH  009%=      5-min Rain = 0
KVA1 132256Z 13007KT 41/02 A2994 RMK A01 T04070023  RH  009%=      5-min Rain = 0
KVA1 132257Z 13004KT 41/02 A2994 RMK A01 T04100021  RH  009%=      5-min Rain = 0
KVA1 132258Z 14005KT 41/02 A2994 RMK A01 T04100021  RH  009%=      5-min Rain = 0
KVA1 132259Z 14006KT 41/02 A2994 RMK A01 T04090021  RH  009%=      5-min Rain = 0
KVA1 132300Z 15004KT 41/02 A2994 RMK A01 T04100022  RH  009%=      5-min Rain = 0
KVA1 132301Z 14005KT 41/02 A2994 RMK A01 T04110021  RH  009%=      5-min Rain = 0
KVA1 132302Z 16003KT 41/02 A2994 RMK A01 T04130024  RH  009%=      5-min Rain = 0
KVA1 132303Z 22002KT 41/02 A2994 RMK A01 T04140021  RH  009%=      5-min Rain = 0
KVA1 132304Z 16005KT 41/02 A2994 RMK A01 T04120020  RH  009%=      5-min Rain = 0
KVA1 132305Z 16007KT 41/02 A2994 RMK A01 T04110022  RH  009%=      5-min Rain = 0
KVA1 132306Z 18006KT 41/02 A2994 RMK A01 T04100023  RH  009%=      5-min Rain = 0
KVA1 132307Z 18004KT 41/02 A2994 RMK A01 T04080021  RH  009%=      5-min Rain = 0
KVA1 132308Z 18003KT 41/02 A2994 RMK A01 T04060021  RH  009%=      5-min Rain = 0
KVA1 132309Z 18002KT 41/02 A2994 RMK A01 T04060021  RH  009%=      5-min Rain = 0
KVA1 132310Z 18004KT 41/02 A2994 RMK A01 T04070022  RH  009%=      5-min Rain = 0
KVA1 132311Z 16007KT 41/02 A2994 RMK A01 T04090023  RH  009%=      5-min Rain = 0
KVA1 132312Z 14006KT 41/02 A2994 RMK A01 T04110024  RH  009%=      5-min Rain = 0
KVA1 132313Z 12008KT 41/02 A2994 RMK A01 T04120023  RH  009%=      5-min Rain = 0
KVA1 132314Z 12006KT 41/02 A2994 RMK A01 T04120024  RH  009%=      5-min Rain = 0
KVA1 132315Z 11006KT 41/03 A2994 RMK A01 T04110025  RH  009%=      5-min Rain = 0
KVA1 132316Z 14011KT 41/02 A2994 RMK A01 T04110024  RH  009%=      5-min Rain = 0
KVA1 132317Z 15010KT 41/02 A2994 RMK A01 T04120024  RH  009%=      5-min Rain = 0
KVA1 132318Z 16011KT 42/02 A2994 RMK A01 T04150024  RH  009%=      5-min Rain = 0
KVA1 132319Z 17012KT 42/02 A2994 RMK A01 T04160023  RH  009%=      5-min Rain = 0
KVA1 132320Z 17009KT 42/02 A2994 RMK A01 T04150021  RH  009%=      5-min Rain = 0
KVA1 132321Z 18010KT 41/02 A2994 RMK A01 T04130021  RH  009%=      5-min Rain = 0
KVA1 132322Z 18008KT 41/02 A2994 RMK A01 T04100021  RH  009%=      5-min Rain = 0
KVA1 132323Z 18007KT 41/02 A2994 RMK A01 T04100021  RH  009%=      5-min Rain = 0
KVA1 132324Z 14010KT 41/02 A2994 RMK A01 T04090021  RH  009%=      5-min Rain = 0
KVA1 132325Z 15012KT 41/02 A2994 RMK A01 T04090021  RH  009%=      5-min Rain = 0
KVA1 132326Z 16006G11KT 41/02 A2994 RMK A01 T04080021  RH  009%=      5-min Rain = 0
KVA1 132327Z 13005KT 41/02 A2994 RMK A01 T04060021  RH  009%=      5-min Rain = 0
KVA1 132328Z 11005KT 41/02 A2994 RMK A01 T04050021  RH  009%=      5-min Rain = 0
KVA1 132329Z 09003KT 40/02 A2994 RMK A01 T04040022  RH  010%=      5-min Rain = 0
KVA1 132330Z 36001KT 40/02 A2993 RMK A01 T04030021  RH  010%=      5-min Rain = 0
KVA1 132331Z 02001KT 40/02 A2993 RMK A01 T04020020  RH  009%=      5-min Rain = 0
KVA1 132332Z 10004KT 40/03 A2993 RMK A01 T04030026  RH  010%=      5-min Rain = 0
KVA1 132333Z 11005KT 40/03 A2993 RMK A01 T04040025  RH  010%=      5-min Rain = 0
KVA1 132334Z 12005KT 41/03 A2993 RMK A01 T04050025  RH  010%=      5-min Rain = 0
KVA1 132335Z 12005KT 41/02 A2993 RMK A01 T04060024  RH  010%=      5-min Rain = 0
KVA1 132336Z 12005KT 41/03 A2993 RMK A01 T04070025  RH  010%=      5-min Rain = 0
KVA1 132337Z 12005KT 41/02 A2993 RMK A01 T04090024  RH  009%=      5-min Rain = 0
KVA1 132338Z 14005KT 41/02 A2993 RMK A01 T04090024  RH  009%=      5-min Rain = 0
KVA1 132339Z 16005KT 41/03 A2993 RMK A01 T04100026  RH  009%=      5-min Rain = 0
KVA1 132340Z 16006KT 41/03 A2993 RMK A01 T04120025  RH  009%=      5-min Rain = 0
KVA1 132341Z 17006KT 41/02 A2993 RMK A01 T04120023  RH  009%=      5-min Rain = 0
KVA1 132342Z 17006KT 41/02 A2993 RMK A01 T04110024  RH  009%=      5-min Rain = 0
KVA1 132343Z 17005KT 41/02 A2993 RMK A01 T04080021  RH  009%=      5-min Rain = 0
KVA1 132344Z 17002KT 41/02 A2993 RMK A01 T04060021  RH  009%=      5-min Rain = 0
KVA1 132345Z 18002KT 41/02 A2993 RMK A01 T04060021  RH  009%=      5-min Rain = 0
KVA1 132346Z 15006KT 41/02 A2993 RMK A01 T04060024  RH  009%=      5-min Rain = 0
KVA1 132347Z 14005KT 41/03 A2993 RMK A01 T04070025  RH  010%=      5-min Rain = 0
KVA1 132348Z 19005KT 41/03 A2993 RMK A01 T04080027  RH  010%=      5-min Rain = 0
KVA1 132349Z 14004KT 41/03 A2993 RMK A01 T04090027  RH  010%=      5-min Rain = 0
KVA1 132350Z 13003KT 41/03 A2993 RMK A01 T04090025  RH  009%=      5-min Rain = 0
KVA1 132351Z 17004G9KT 41/03 A2993 RMK A01 T04080026  RH  010%=      5-min Rain = 0
KVA1 132352Z 19008KT 41/03 A2993 RMK A01 T04080026  RH  010%=      5-min Rain = 0
KVA1 132353Z 20005KT 41/02 A2993 RMK A01 T04090024  RH  009%=      5-min Rain = 0
KVA1 132354Z 19004KT 41/02 A2993 RMK A01 T04050021  RH  009%=      5-min Rain = 0
KVA1 132355Z 18002KT 40/02 A2993 RMK A01 T04040023  RH  010%=      5-min Rain = 0
KVA1 132356Z 18000KT 40/02 A2993 RMK A01 T04040021  RH  009%=      5-min Rain = 0
KVA1 132357Z 00000KT 40/02 A2993 RMK A01 T04040021  RH  009%=      5-min Rain = 0
KVA1 132358Z 11002KT 41/02 A2993 RMK A01 T04070022  RH  009%=      5-min Rain = 0
KVA1 132359Z 07003KT 41/03 A2993 RMK A01 T04070025  RH  010%=      5-min Rain = 0
KVA1 140000Z 07002KT 41/02 A2993 RMK A01 T04070023  RH  009%=      5-min Rain = 0
KVA1 140001Z 08002KT 41/03 A2993 RMK A01 T04050025  RH  010%=      5-min Rain = 0
KVA1 140002Z 14001KT 40/03 A2993 RMK A01 T04040026  RH  010%=      5-min Rain = 0
KVA1 140003Z 22005KT 40/02 A2993 RMK A01 T04040024  RH  010%=      5-min Rain = 0
KVA1 140004Z 23005KT 40/02 A2993 RMK A01 T04040022  RH  010%=      5-min Rain = 0
KVA1 140005Z 21005KT 41/02 A2993 RMK A01 T04060023  RH  010%=      5-min Rain = 0
KVA1 140006Z 19004KT 41/02 A2993 RMK A01 T04060024  RH  010%=      5-min Rain = 0
KVA1 140007Z 20002KT 41/02 A2993 RMK A01 T04050022  RH  009%=      5-min Rain = 0
KVA1 140008Z 21001KT 40/02 A2993 RMK A01 T04030021  RH  009%=      5-min Rain = 0
KVA1 140009Z 23004KT 40/02 A2993 RMK A01 T04030023  RH  010%=      5-min Rain = 0
KVA1 140010Z 24003KT 41/02 A2993 RMK A01 T04050023  RH  010%=      5-min Rain = 0
KVA1 140011Z 23005KT 41/02 A2993 RMK A01 T04060023  RH  010%=      5-min Rain = 0
KVA1 140012Z 22006KT 41/02 A2993 RMK A01 T04060024  RH  010%=      5-min Rain = 0
KVA1 140013Z 24004KT 41/02 A2993 RMK A01 T04060024  RH  010%=      5-min Rain = 0
KVA1 140014Z 20005KT 41/03 A2993 RMK A01 T04070025  RH  010%=      5-min Rain = 0
KVA1 140015Z 19006KT 41/03 A2992 RMK A01 T04060026  RH  010%=      5-min Rain = 0
KVA1 140016Z 14004KT 41/03 A2992 RMK A01 T04050028  RH  010%=      5-min Rain = 0
KVA1 140017Z 17002KT 41/03 A2992 RMK A01 T04060028  RH  010%=      5-min Rain = 0
KVA1 140018Z 16002KT 41/03 A2992 RMK A01 T04070027  RH  010%=      5-min Rain = 0
KVA1 140019Z 22003G8KT 41/03 A2992 RMK A01 T04080026  RH  010%=      5-min Rain = 0
KVA1 140020Z 20005KT 41/03 A2992 RMK A01 T04080026  RH  010%=      5-min Rain = 0
KVA1 140021Z 20007KT 41/03 A2992 RMK A01 T04090027  RH  010%=      5-min Rain = 0
KVA1 140022Z 18007KT 41/03 A2992 RMK A01 T04080027  RH  010%=      5-min Rain = 0
KVA1 140023Z 16007KT 41/03 A2992 RMK A01 T04060026  RH  010%=      5-min Rain = 0
KVA1 140024Z 16008KT 41/03 A2992 RMK A01 T04050025  RH  010%=      5-min Rain = 0
KVA1 140025Z 16005KT 40/03 A2992 RMK A01 T04030025  RH  010%=      5-min Rain = 0
KVA1 140026Z 20004KT 40/03 A2992 RMK A01 T04020026  RH  010%=      5-min Rain = 0
KVA1 140027Z 21001KT 40/03 A2992 RMK A01 T04010025  RH  010%=      5-min Rain = 0
KVA1 140028Z 24002KT 40/03 A2992 RMK A01 T04030025  RH  010%=      5-min Rain = 0
KVA1 140029Z 24001KT 40/02 A2992 RMK A01 T04040024  RH  010%=      5-min Rain = 0
KVA1 140030Z 22000KT 41/02 A2992 RMK A01 T04050024  RH  010%=      5-min Rain = 0
KVA1 140031Z 18003KT 41/03 A2992 RMK A01 T04080027  RH  010%=      5-min Rain = 0
KVA1 140032Z 19004KT 41/03 A2992 RMK A01 T04080027  RH  010%=      5-min Rain = 0
KVA1 140033Z 20007KT 41/03 A2992 RMK A01 T04080027  RH  010%=      5-min Rain = 0
KVA1 140034Z 20008KT 41/03 A2992 RMK A01 T04060025  RH  010%=      5-min Rain = 0
KVA1 140035Z 21008KT 40/02 A2992 RMK A01 T04040024  RH  010%=      5-min Rain = 0
KVA1 140036Z 21007KT 40/02 A2992 RMK A01 T04030023  RH  010%=      5-min Rain = 0
KVA1 140037Z 21006KT 40/02 A2992 RMK A01 T04020024  RH  010%=      5-min Rain = 0
KVA1 140038Z 20005KT 40/02 A2992 RMK A01 T04030024  RH  010%=      5-min Rain = 0
KVA1 140039Z 20003KT 40/02 A2992 RMK A01 T04030024  RH  010%=      5-min Rain = 0
KVA1 140040Z 20001KT 40/02 A2992 RMK A01 T04020024  RH  010%=      5-min Rain = 0
KVA1 140041Z 31001KT 40/02 A2992 RMK A01 T04010023  RH  010%=      5-min Rain = 0
KVA1 140042Z 21001KT 40/02 A2992 RMK A01 T04010022  RH  010%=      5-min Rain = 0
KVA1 140043Z 18004KT 40/02 A2992 RMK A01 T04020024  RH  010%=      5-min Rain = 0
KVA1 140044Z 18005KT 40/03 A2992 RMK A01 T04020025  RH  010%=      5-min Rain = 0
KVA1 140045Z 21002KT 40/02 A2992 RMK A01 T04020024  RH  010%=      5-min Rain = 0
KVA1 140046Z 22003KT 40/02 A2992 RMK A01 T04010024  RH  010%=      5-min Rain = 0
KVA1 140047Z 20004KT 40/02 A2992 RMK A01 T04010023  RH  010%=      5-min Rain = 0
KVA1 140048Z 20003KT 40/03 A2992 RMK A01 T04010026  RH  010%=      5-min Rain = 0
KVA1 140049Z 18006KT 40/03 A2992 RMK A01 T04010025  RH  010%=      5-min Rain = 0
KVA1 140050Z 19007KT 40/03 A2992 RMK A01 T04000026  RH  010%=      5-min Rain = 0
KVA1 140051Z 19006KT 40/03 A2992 RMK A01 T04010028  RH  010%=      5-min Rain = 0
KVA1 140052Z 17006KT 40/03 A2992 RMK A01 T04010028  RH  010%=      5-min Rain = 0
KVA1 140053Z 17007KT 40/03 A2992 RMK A01 T04010028  RH  010%=      5-min Rain = 0
KVA1 140054Z 16007KT 40/03 A2992 RMK A01 T04010027  RH  010%=      5-min Rain = 0
KVA1 140055Z 16007KT 40/03 A2992 RMK A01 T04000027  RH  010%=      5-min Rain = 0
KVA1 140056Z 16007KT 40/03 A2992 RMK A01 T04000026  RH  010%=      5-min Rain = 0
KVA1 140057Z 16005KT 40/03 A2992 RMK A01 T04000026  RH  010%=      5-min Rain = 0
KVA1 140058Z 17004KT 40/03 A2992 RMK A01 T04000027  RH  010%=      5-min Rain = 0
KVA1 140059Z 19008KT 40/03 A2992 RMK A01 T04000028  RH  010%=      5-min Rain = 0
KVA1 140100Z 19007KT 40/03 A2992 RMK A01 T04000028  RH  010%=      5-min Rain = 0
KVA1 140101Z 17006KT 40/03 A2992 RMK A01 T04000028  RH  010%=      5-min Rain = 0
KVA1 140102Z 16003KT 40/03 A2992 RMK A01 T04000026  RH  010%=      5-min Rain = 0
KVA1 140103Z 15004KT 40/03 A2992 RMK A01 T03980026  RH  010%=      5-min Rain = 0
KVA1 140104Z 17004KT 40/03 A2992 RMK A01 T03980026  RH  010%=      5-min Rain = 0
KVA1 140105Z 19006KT 40/03 A2992 RMK A01 T03980027  RH  010%=      5-min Rain = 0
KVA1 140106Z 19007KT 40/03 A2992 RMK A01 T03980025  RH  010%=      5-min Rain = 0
KVA1 140107Z 19005KT 40/03 A2992 RMK A01 T03970025  RH  010%=      5-min Rain = 0
KVA1 140108Z 19004KT 40/03 A2992 RMK A01 T03960028  RH  010%=      5-min Rain = 0
KVA1 140109Z 20003KT 40/03 A2992 RMK A01 T03960027  RH  010%=      5-min Rain = 0
KVA1 140110Z 21005KT 40/03 A2992 RMK A01 T03970026  RH  010%=      5-min Rain = 0
KVA1 140111Z 22004KT 40/02 A2992 RMK A01 T03970024  RH  010%=      5-min Rain = 0
KVA1 140112Z 22004KT 40/02 A2992 RMK A01 T03970023  RH  010%=      5-min Rain = 0
KVA1 140113Z 22004KT 40/02 A2992 RMK A01 T03970024  RH  010%=      5-min Rain = 0
KVA1 140114Z 21004KT 40/03 A2992 RMK A01 T03980025  RH  010%=      5-min Rain = 0
KVA1 140115Z 20005KT 40/03 A2992 RMK A01 T03980026  RH  010%=      5-min Rain = 0
KVA1 140116Z 17004KT 40/03 A2992 RMK A01 T03970029  RH  010%=      5-min Rain = 0
KVA1 140117Z 17003KT 40/03 A2992 RMK A01 T03970027  RH  010%=      5-min Rain = 0
KVA1 140118Z 16004KT 40/03 A2992 RMK A01 T03960027  RH  010%=      5-min Rain = 0
KVA1 140119Z 17004KT 40/03 A2992 RMK A01 T03960029  RH  010%=      5-min Rain = 0
KVA1 140120Z 16003KT 40/03 A2992 RMK A01 T03950028  RH  010%=      5-min Rain = 0
KVA1 140121Z 18004KT 40/03 A2992 RMK A01 T03950029  RH  010%=      5-min Rain = 0
KVA1 140122Z 18003KT 39/03 A2992 RMK A01 T03940028  RH  010%=      5-min Rain = 0
KVA1 140123Z 18003KT 39/03 A2992 RMK A01 T03940028  RH  010%=      5-min Rain = 0
KVA1 140124Z 19004KT 39/03 A2992 RMK A01 T03940028  RH  010%=      5-min Rain = 0
KVA1 140125Z 20004KT 39/03 A2992 RMK A01 T03940029  RH  011%=      5-min Rain = 0
KVA1 140126Z 20003KT 39/03 A2992 RMK A01 T03930026  RH  010%=      5-min Rain = 0
KVA1 140127Z 19004KT 39/03 A2992 RMK A01 T03940027  RH  010%=      5-min Rain = 0
KVA1 140128Z 19003KT 39/03 A2992 RMK A01 T03930025  RH  010%=      5-min Rain = 0
KVA1 140129Z 21002KT 39/03 A2992 RMK A01 T03930027  RH  010%=      5-min Rain = 0
KVA1 140130Z 19003KT 39/03 A2992 RMK A01 T03930030  RH  011%=      5-min Rain = 0
KVA1 140131Z 20004KT 39/03 A2992 RMK A01 T03930030  RH  011%=      5-min Rain = 0
KVA1 140132Z 22005KT 39/03 A2992 RMK A01 T03920029  RH  011%=      5-min Rain = 0
KVA1 140133Z 22004KT 39/03 A2992 RMK A01 T03920028  RH  011%=      5-min Rain = 0
KVA1 140134Z 21005KT 39/03 A2992 RMK A01 T03920028  RH  011%=      5-min Rain = 0
KVA1 140135Z 19004KT 39/03 A2992 RMK A01 T03910028  RH  011%=      5-min Rain = 0
KVA1 140136Z 18004KT 39/03 A2992 RMK A01 T03910028  RH  011%=      5-min Rain = 0
KVA1 140137Z 16005KT 39/03 A2992 RMK A01 T03910029  RH  011%=      5-min Rain = 0
KVA1 140138Z 17004KT 39/03 A2992 RMK A01 T03910030  RH  011%=      5-min Rain = 0
KVA1 140139Z 19003KT 39/03 A2992 RMK A01 T03900031  RH  011%=      5-min Rain = 0
KVA1 140140Z 18003KT 39/03 A2992 RMK A01 T03890031  RH  011%=      5-min Rain = 0
KVA1 140141Z 21004KT 39/03 A2992 RMK A01 T03890031  RH  011%=      5-min Rain = 0
KVA1 140142Z 18004KT 39/03 A2992 RMK A01 T03890030  RH  011%=      5-min Rain = 0
KVA1 140143Z 18004KT 39/03 A2992 RMK A01 T03880030  RH  011%=      5-min Rain = 0
KVA1 140144Z 19005KT 39/03 A2992 RMK A01 T03880031  RH  011%=      5-min Rain = 0
KVA1 140145Z 20005KT 39/03 A2992 RMK A01 T03870030  RH  011%=      5-min Rain = 0
KVA1 140146Z 19006KT 39/03 A2992 RMK A01 T03860030  RH  011%=      5-min Rain = 0
KVA1 140147Z 19005KT 39/03 A2992 RMK A01 T03850029  RH  011%=      5-min Rain = 0
KVA1 140148Z 19005KT 38/03 A2992 RMK A01 T03840030  RH  011%=      5-min Rain = 0
KVA1 140149Z 20006KT 38/03 A2992 RMK A01 T03830029  RH  011%=      5-min Rain = 0
KVA1 140150Z 20005KT 38/03 A2992 RMK A01 T03830029  RH  011%=      5-min Rain = 0
KVA1 140151Z 20005KT 38/03 A2992 RMK A01 T03830029  RH  011%=      5-min Rain = 0
KVA1 140152Z 20005KT 38/03 A2992 RMK A01 T03820029  RH  011%=      5-min Rain = 0
KVA1 140153Z 21004KT 38/03 A2992 RMK A01 T03820029  RH  011%=      5-min Rain = 0
KVA1 140154Z 21004KT 38/03 A2992 RMK A01 T03810028  RH  011%=      5-min Rain = 0
KVA1 140155Z 21003KT 38/03 A2992 RMK A01 T03800027  RH  011%=      5-min Rain = 0
KVA1 140156Z 21003KT 38/03 A2992 RMK A01 T03800029  RH  011%=      5-min Rain = 0
KVA1 140157Z 22004KT 38/03 A2992 RMK A01 T03780027  RH  011%=      5-min Rain = 0
KVA1 140158Z 21004KT 38/03 A2992 RMK A01 T03770026  RH  011%=      5-min Rain = 0
KVA1 140159Z 21004KT 38/03 A2992 RMK A01 T03760026  RH  011%=      5-min Rain = 0
KVA1 140200Z 21004KT 38/03 A2992 RMK A01 T03750026  RH  011%=      5-min Rain = 0
KVA1 140201Z 21004KT 37/03 A2992 RMK A01 T03740026  RH  011%=      5-min Rain = 0
KVA1 140202Z 22005KT 37/03 A2992 RMK A01 T03740026  RH  012%=      5-min Rain = 0
KVA1 140203Z 22005KT 37/03 A2992 RMK A01 T03730025  RH  012%=      5-min Rain = 0
KVA1 140204Z 22005KT 37/03 A2992 RMK A01 T03720026  RH  012%=      5-min Rain = 0
KVA1 140205Z 21005KT 37/03 A2992 RMK A01 T03720025  RH  012%=      5-min Rain = 0
KVA1 140206Z 21004KT 37/03 A2992 RMK A01 T03730026  RH  012%=      5-min Rain = 0
KVA1 140207Z 21004KT 37/03 A2992 RMK A01 T03720030  RH  012%=      5-min Rain = 0
KVA1 140208Z 21004KT 37/03 A2992 RMK A01 T03710027  RH  012%=      5-min Rain = 0
KVA1 140209Z 21004KT 37/03 A2992 RMK A01 T03690026  RH  012%=      5-min Rain = 0
KVA1 140210Z 21005KT 37/03 A2992 RMK A01 T03670025  RH  012%=      5-min Rain = 0
KVA1 140211Z 21005KT 37/03 A2992 RMK A01 T03670025  RH  012%=      5-min Rain = 0
KVA1 140212Z 22005KT 37/03 A2993 RMK A01 T03660025  RH  012%=      5-min Rain = 0
KVA1 140213Z 22006KT 37/03 A2993 RMK A01 T03650025  RH  012%=      5-min Rain = 0
KVA1 140214Z 22006KT 36/03 A2993 RMK A01 T03640025  RH  012%=      5-min Rain = 0
KVA1 140215Z 23006KT 36/03 A2993 RMK A01 T03630025  RH  012%=      5-min Rain = 0
KVA1 140216Z 22006KT 36/03 A2993 RMK A01 T03620025  RH  012%=      5-min Rain = 0
KVA1 140217Z 22006KT 36/03 A2993 RMK A01 T03610025  RH  012%=      5-min Rain = 0
KVA1 140218Z 23006KT 36/03 A2993 RMK A01 T03610025  RH  012%=      5-min Rain = 0
KVA1 140219Z 23005KT 36/03 A2993 RMK A01 T03610025  RH  012%=      5-min Rain = 0
KVA1 140220Z 23005KT 36/03 A2993 RMK A01 T03600025  RH  012%=      5-min Rain = 0
KVA1 140221Z 23005KT 36/03 A2993 RMK A01 T03590025  RH  012%=      5-min Rain = 0
KVA1 140222Z 24005KT 36/03 A2993 RMK A01 T03580025  RH  012%=      5-min Rain = 0
KVA1 140223Z 24005KT 36/03 A2993 RMK A01 T03570025  RH  012%=      5-min Rain = 0
KVA1 140224Z 23006KT 36/02 A2993 RMK A01 T03550024  RH  013%=      5-min Rain = 0
KVA1 140225Z 23006KT 36/03 A2993 RMK A01 T03550025  RH  013%=      5-min Rain = 0
KVA1 140226Z 23005KT 35/03 A2993 RMK A01 T03540025  RH  013%=      5-min Rain = 0
KVA1 140227Z 23005KT 35/03 A2993 RMK A01 T03530025  RH  013%=      5-min Rain = 0
KVA1 140228Z 23005KT 35/03 A2993 RMK A01 T03520025  RH  013%=      5-min Rain = 0
KVA1 140229Z 23005KT 35/03 A2993 RMK A01 T03510025  RH  013%=      5-min Rain = 0
KVA1 140230Z 23006KT 35/03 A2993 RMK A01 T03500025  RH  013%=      5-min Rain = 0
KVA1 140231Z 23006KT 35/03 A2993 RMK A01 T03500025  RH  013%=      5-min Rain = 0
KVA1 140232Z 23006KT 35/03 A2993 RMK A01 T03500026  RH  013%=      5-min Rain = 0
KVA1 140233Z 23006KT 35/03 A2993 RMK A01 T03490025  RH  013%=      5-min Rain = 0
KVA1 140234Z 23006KT 35/03 A2993 RMK A01 T03500026  RH  013%=      5-min Rain = 0
KVA1 140235Z 23006KT 35/03 A2993 RMK A01 T03500026  RH  013%=      5-min Rain = 0
KVA1 140236Z 23006KT 35/03 A2993 RMK A01 T03500026  RH  013%=      5-min Rain = 0
KVA1 140237Z 23006KT 35/03 A2993 RMK A01 T03500026  RH  013%=      5-min Rain = 0
KVA1 140238Z 23006KT 35/03 A2993 RMK A01 T03500026  RH  013%=      5-min Rain = 0
KVA1 140239Z 23006KT 35/03 A2993 RMK A01 T03500026  RH  013%=      5-min Rain = 0
KVA1 140240Z 23006KT 35/03 A2993 RMK A01 T03490025  RH  013%=      5-min Rain = 0
KVA1 140241Z 23006KT 35/03 A2993 RMK A01 T03480026  RH  013%=      5-min Rain = 0
KVA1 140242Z 23006KT 35/03 A2993 RMK A01 T03480026  RH  013%=      5-min Rain = 0
KVA1 140243Z 23006KT 35/03 A2993 RMK A01 T03480026  RH  013%=      5-min Rain = 0
KVA1 140244Z 23006KT 35/03 A2993 RMK A01 T03470025  RH  013%=      5-min Rain = 0
KVA1 140245Z 23006KT 35/03 A2993 RMK A01 T03460025  RH  013%=      5-min Rain = 0
KVA1 140246Z 23006KT 35/03 A2993 RMK A01 T03450025  RH  013%=      5-min Rain = 0
KVA1 140247Z 23007KT 35/03 A2993 RMK A01 T03450025  RH  013%=      5-min Rain = 0
KVA1 140248Z 23007KT 34/03 A2993 RMK A01 T03440026  RH  014%=      5-min Rain = 0
KVA1 140249Z 23006KT 34/03 A2993 RMK A01 T03430026  RH  014%=      5-min Rain = 0
KVA1 140250Z 23006KT 34/03 A2993 RMK A01 T03430026  RH  014%=      5-min Rain = 0
KVA1 140251Z 23006KT 34/03 A2993 RMK A01 T03430026  RH  014%=      5-min Rain = 0
KVA1 140252Z 23006KT 34/03 A2993 RMK A01 T03430026  RH  014%=      5-min Rain = 0
KVA1 140253Z 23006KT 34/03 A2993 RMK A01 T03430025  RH  014%=      5-min Rain = 0
KVA1 140254Z 22006KT 34/03 A2993 RMK A01 T03430026  RH  014%=      5-min Rain = 0
KVA1 140255Z 23006KT 34/03 A2993 RMK A01 T03430025  RH  014%=      5-min Rain = 0
KVA1 140256Z 23006KT 34/03 A2993 RMK A01 T03430026  RH  014%=      5-min Rain = 0
KVA1 140257Z 23007KT 34/03 A2993 RMK A01 T03430026  RH  014%=      5-min Rain = 0
KVA1 140258Z 23006KT 34/03 A2993 RMK A01 T03420025  RH  014%=      5-min Rain = 0
KVA1 140259Z 23006KT 34/03 A2993 RMK A01 T03420025  RH  014%=      5-min Rain = 0
KVA1 140300Z 23006KT 34/03 A2993 RMK A01 T03400025  RH  014%=      5-min Rain = 0
KVA1 140301Z 23006KT 34/03 A2994 RMK A01 T03400025  RH  014%=      5-min Rain = 0
KVA1 140302Z 23006KT 34/03 A2994 RMK A01 T03390025  RH  014%=      5-min Rain = 0
KVA1 140303Z 23006KT 34/03 A2994 RMK A01 T03390025  RH  014%=      5-min Rain = 0
KVA1 140304Z 24005KT 34/03 A2994 RMK A01 T03390025  RH  014%=      5-min Rain = 0
KVA1 140305Z 24005KT 34/02 A2994 RMK A01 T03380024  RH  014%=      5-min Rain = 0
KVA1 140306Z 25004KT 34/02 A2994 RMK A01 T03360024  RH  014%=      5-min Rain = 0
KVA1 140307Z 25005KT 33/02 A2994 RMK A01 T03330024  RH  014%=      5-min Rain = 0
KVA1 140308Z 25005KT 33/02 A2994 RMK A01 T03320024  RH  014%=      5-min Rain = 0
KVA1 140309Z 25006KT 33/02 A2994 RMK A01 T03300024  RH  014%=      5-min Rain = 0
KVA1 140310Z 26005KT 33/03 A2994 RMK A01 T03300025  RH  015%=      5-min Rain = 0
KVA1 140311Z 25006KT 33/03 A2994 RMK A01 T03290025  RH  015%=      5-min Rain = 0
KVA1 140312Z 25005KT 33/03 A2994 RMK A01 T03270025  RH  015%=      5-min Rain = 0
KVA1 140313Z 26005KT 33/02 A2994 RMK A01 T03260024  RH  015%=      5-min Rain = 0
KVA1 140314Z 25005KT 33/03 A2994 RMK A01 T03260025  RH  015%=      5-min Rain = 0
KVA1 140315Z 24005KT 33/03 A2994 RMK A01 T03250026  RH  015%=      5-min Rain = 0
KVA1 140316Z 22005KT 33/03 A2994 RMK A01 T03250027  RH  015%=      5-min Rain = 0
KVA1 140317Z 16005KT 33/03 A2994 RMK A01 T03250027  RH  015%=      5-min Rain = 0
KVA1 140318Z 17006KT 33/03 A2994 RMK A01 T03250026  RH  015%=      5-min Rain = 0
KVA1 140319Z 17006KT 33/03 A2994 RMK A01 T03260027  RH  015%=      5-min Rain = 0
KVA1 140320Z 17006KT 33/03 A2994 RMK A01 T03280028  RH  015%=      5-min Rain = 0
KVA1 140321Z 18007KT 33/03 A2994 RMK A01 T03300027  RH  015%=      5-min Rain = 0
KVA1 140322Z 18007KT 33/03 A2994 RMK A01 T03320027  RH  015%=      5-min Rain = 0
KVA1 140323Z 18007KT 33/03 A2994 RMK A01 T03340028  RH  015%=      5-min Rain = 0
KVA1 140324Z 18007KT 33/03 A2995 RMK A01 T03340028  RH  014%=      5-min Rain = 0
KVA1 140325Z 19008KT 34/03 A2995 RMK A01 T03350028  RH  014%=      5-min Rain = 0
KVA1 140326Z 19008KT 34/03 A2995 RMK A01 T03370029  RH  014%=      5-min Rain = 0
KVA1 140327Z 20007KT 34/03 A2995 RMK A01 T03410029  RH  014%=      5-min Rain = 0
KVA1 140328Z 20007KT 34/03 A2995 RMK A01 T03430028  RH  014%=      5-min Rain = 0
KVA1 140329Z 21006KT 34/03 A2995 RMK A01 T03430027  RH  014%=      5-min Rain = 0
KVA1 140330Z 21007KT 34/03 A2995 RMK A01 T03430027  RH  014%=      5-min Rain = 0
KVA1 140331Z 20006KT 34/03 A2995 RMK A01 T03420026  RH  014%=      5-min Rain = 0
KVA1 140332Z 21006KT 34/03 A2995 RMK A01 T03410027  RH  014%=      5-min Rain = 0
KVA1 140333Z 21006KT 34/03 A2995 RMK A01 T03400026  RH  014%=      5-min Rain = 0
KVA1 140334Z 20007KT 34/03 A2995 RMK A01 T03380026  RH  014%=      5-min Rain = 0
KVA1 140335Z 21006KT 34/03 A2995 RMK A01 T03380028  RH  014%=      5-min Rain = 0
KVA1 140336Z 21006KT 34/03 A2995 RMK A01 T03370026  RH  014%=      5-min Rain = 0
KVA1 140337Z 19007KT 34/03 A2995 RMK A01 T03360027  RH  014%=      5-min Rain = 0
KVA1 140338Z 21006KT 34/03 A2995 RMK A01 T03360027  RH  014%=      5-min Rain = 0
KVA1 140339Z 21006KT 34/03 A2995 RMK A01 T03350026  RH  014%=      5-min Rain = 0
KVA1 140340Z 21005KT 33/03 A2995 RMK A01 T03340026  RH  014%=      5-min Rain = 0
KVA1 140341Z 22006KT 33/03 A2995 RMK A01 T03330025  RH  014%=      5-min Rain = 0
KVA1 140342Z 22007KT 33/03 A2995 RMK A01 T03320025  RH  014%=      5-min Rain = 0
KVA1 140343Z 22007KT 33/03 A2995 RMK A01 T03320025  RH  014%=      5-min Rain = 0
KVA1 140344Z 21007KT 33/03 A2995 RMK A01 T03320025  RH  014%=      5-min Rain = 0
KVA1 140345Z 21007KT 33/03 A2995 RMK A01 T03320025  RH  014%=      5-min Rain = 0
KVA1 140346Z 21007KT 33/02 A2995 RMK A01 T03330024  RH  014%=      5-min Rain = 0
KVA1 140347Z 21007KT 33/03 A2995 RMK A01 T03340025  RH  014%=      5-min Rain = 0
KVA1 140348Z 21007KT 33/03 A2995 RMK A01 T03340025  RH  014%=      5-min Rain = 0
KVA1 140349Z 21006KT 33/02 A2995 RMK A01 T03340024  RH  014%=      5-min Rain = 0
KVA1 140350Z 21006KT 33/02 A2995 RMK A01 T03330024  RH  014%=      5-min Rain = 0
KVA1 140351Z 21006KT 33/03 A2995 RMK A01 T03330025  RH  014%=      5-min Rain = 0
KVA1 140352Z 20006KT 33/03 A2995 RMK A01 T03330025  RH  014%=      5-min Rain = 0
KVA1 140353Z 21006KT 33/03 A2995 RMK A01 T03330025  RH  014%=      5-min Rain = 0
KVA1 140354Z 21007KT 33/03 A2995 RMK A01 T03320025  RH  014%=      5-min Rain = 0
KVA1 140355Z 20007KT 33/02 A2996 RMK A01 T03310024  RH  014%=      5-min Rain = 0
KVA1 140356Z 20007KT 33/02 A2996 RMK A01 T03300024  RH  014%=      5-min Rain = 0
KVA1 140357Z 20006KT 33/03 A2996 RMK A01 T03300025  RH  015%=      5-min Rain = 0
KVA1 140358Z 21006KT 33/03 A2996 RMK A01 T03290025  RH  015%=      5-min Rain = 0
KVA1 140359Z 21006KT 33/02 A2996 RMK A01 T03280024  RH  015%=      5-min Rain = 0
KVA1 140400Z 20007KT 33/02 A2996 RMK A01 T03270023  RH  015%=      5-min Rain = 0
KVA1 140401Z 20007KT 33/02 A2996 RMK A01 T03260024  RH  015%=      5-min Rain = 0
KVA1 140402Z 20007KT 33/03 A2996 RMK A01 T03260025  RH  015%=      5-min Rain = 0
KVA1 140403Z 21007KT 33/02 A2996 RMK A01 T03250024  RH  015%=      5-min Rain = 0
KVA1 140404Z 21007KT 33/02 A2996 RMK A01 T03260023  RH  015%=      5-min Rain = 0
KVA1 140405Z 21007KT 33/02 A2996 RMK A01 T03250023  RH  015%=      5-min Rain = 0
KVA1 140406Z 21007KT 33/02 A2996 RMK A01 T03250023  RH  015%=      5-min Rain = 0
KVA1 140407Z 21007KT 32/02 A2996 RMK A01 T03240023  RH  015%=      5-min Rain = 0
KVA1 140408Z 21007KT 32/02 A2996 RMK A01 T03240023  RH  015%=      5-min Rain = 0
KVA1 140409Z 21007KT 32/02 A2996 RMK A01 T03230023  RH  015%=      5-min Rain = 0
KVA1 140410Z 21006KT 32/02 A2996 RMK A01 T03230023  RH  015%=      5-min Rain = 0
KVA1 140411Z 22006KT 32/02 A2996 RMK A01 T03230023  RH  015%=      5-min Rain = 0
KVA1 140412Z 22006KT 32/02 A2996 RMK A01 T03220023  RH  015%=      5-min Rain = 0
KVA1 140413Z 22006KT 32/02 A2996 RMK A01 T03210022  RH  015%=      5-min Rain = 0
KVA1 140414Z 21006KT 32/02 A2996 RMK A01 T03200022  RH  015%=      5-min Rain = 0
KVA1 140415Z 21006KT 32/02 A2996 RMK A01 T03200022  RH  015%=      5-min Rain = 0
KVA1 140416Z 22006KT 32/02 A2996 RMK A01 T03200023  RH  015%=      5-min Rain = 0
KVA1 140417Z 24006KT 32/02 A2996 RMK A01 T03200023  RH  015%=      5-min Rain = 0
KVA1 140418Z 24006KT 32/02 A2996 RMK A01 T03180022  RH  015%=      5-min Rain = 0
KVA1 140419Z 25006KT 32/02 A2996 RMK A01 T03170022  RH  015%=      5-min Rain = 0
KVA1 140420Z 25006KT 32/02 A2996 RMK A01 T03150021  RH  015%=      5-min Rain = 0
KVA1 140421Z 25007KT 31/02 A2996 RMK A01 T03130022  RH  016%=      5-min Rain = 0
KVA1 140422Z 24007KT 31/02 A2997 RMK A01 T03120023  RH  016%=      5-min Rain = 0
KVA1 140423Z 24007KT 31/02 A2997 RMK A01 T03110023  RH  016%=      5-min Rain = 0
KVA1 140424Z 24006KT 31/02 A2997 RMK A01 T03120024  RH  016%=      5-min Rain = 0
KVA1 140425Z 24007KT 31/02 A2997 RMK A01 T03120024  RH  016%=      5-min Rain = 0
KVA1 140426Z 24007KT 31/02 A2997 RMK A01 T03120024  RH  016%=      5-min Rain = 0
KVA1 140427Z 24007KT 31/02 A2997 RMK A01 T03130023  RH  016%=      5-min Rain = 0
KVA1 140428Z 24007KT 31/02 A2997 RMK A01 T03130023  RH  016%=      5-min Rain = 0
KVA1 140429Z 24007KT 31/02 A2997 RMK A01 T03140023  RH  016%=      5-min Rain = 0
KVA1 140430Z 24007KT 31/02 A2997 RMK A01 T03140023  RH  016%=      5-min Rain = 0
KVA1 140431Z 24007KT 32/02 A2997 RMK A01 T03150023  RH  016%=      5-min Rain = 0
KVA1 140432Z 24007KT 32/02 A2997 RMK A01 T03150022  RH  016%=      5-min Rain = 0
KVA1 140433Z 23006KT 32/02 A2997 RMK A01 T03150022  RH  016%=      5-min Rain = 0
KVA1 140434Z 22006KT 32/02 A2997 RMK A01 T03150023  RH  016%=      5-min Rain = 0
KVA1 140435Z 23007KT 32/02 A2997 RMK A01 T03150023  RH  016%=      5-min Rain = 0
KVA1 140436Z 23007KT 32/02 A2997 RMK A01 T03150023  RH  016%=      5-min Rain = 0
KVA1 140437Z 23007KT 32/02 A2997 RMK A01 T03160023  RH  016%=      5-min Rain = 0
KVA1 140438Z 23008KT 32/02 A2997 RMK A01 T03150022  RH  016%=      5-min Rain = 0
KVA1 140439Z 23007KT 32/02 A2997 RMK A01 T03150023  RH  016%=      5-min Rain = 0
KVA1 140440Z 23007KT 32/02 A2997 RMK A01 T03150023  RH  016%=      5-min Rain = 0
KVA1 140441Z 23008KT 32/02 A2997 RMK A01 T03150023  RH  016%=      5-min Rain = 0
KVA1 140442Z 23008KT 32/02 A2997 RMK A01 T03150023  RH  016%=      5-min Rain = 0
KVA1 140443Z 23008KT 32/02 A2997 RMK A01 T03150024  RH  016%=      5-min Rain = 0
KVA1 140444Z 23008KT 32/03 A2997 RMK A01 T03160025  RH  016%=      5-min Rain = 0
KVA1 140445Z 23008KT 32/03 A2997 RMK A01 T03160025  RH  016%=      5-min Rain = 0
KVA1 140446Z 23009KT 32/03 A2997 RMK A01 T03200028  RH  016%=      5-min Rain = 0
KVA1 140447Z 24008KT 32/03 A2997 RMK A01 T03220028  RH  015%=      5-min Rain = 0
KVA1 140448Z 24008KT 32/03 A2997 RMK A01 T03220026  RH  015%=      5-min Rain = 0
KVA1 140449Z 24008KT 32/03 A2997 RMK A01 T03210025  RH  015%=      5-min Rain = 0
KVA1 140450Z 24009KT 32/02 A2997 RMK A01 T03190024  RH  015%=      5-min Rain = 0
KVA1 140451Z 24009KT 32/02 A2997 RMK A01 T03170024  RH  016%=      5-min Rain = 0
KVA1 140452Z 24008KT 32/03 A2997 RMK A01 T03160025  RH  016%=      5-min Rain = 0
KVA1 140453Z 24009KT 32/03 A2997 RMK A01 T03160026  RH  016%=      5-min Rain = 0
KVA1 140454Z 23008KT 32/03 A2997 RMK A01 T03160026  RH  016%=      5-min Rain = 0
KVA1 140455Z 23007KT 32/03 A2997 RMK A01 T03170027  RH  016%=      5-min Rain = 0
KVA1 140456Z 23007KT 32/03 A2997 RMK A01 T03170027  RH  016%=      5-min Rain = 0
KVA1 140457Z 23007KT 32/03 A2997 RMK A01 T03180027  RH  016%=      5-min Rain = 0
KVA1 140458Z 23007KT 32/03 A2997 RMK A01 T03180027  RH  016%=      5-min Rain = 0
KVA1 140459Z 24006KT 32/03 A2997 RMK A01 T03180027  RH  016%=      5-min Rain = 0

Page generated in 0.1745 seconds.